<?xml version="1.0" encoding="UTF-8" standalone="no" ?>
<gpx xmlns="http://www.topografix.com/GPX/1/1" xmlns:xsi="http://www.w3.org/2001/XMLSchema-instance" xsi:schemaLocation="http://www.topografix.com/GPX/1/1 http://www.topografix.com/GPX/1/1/gpx.xsd" version="1.1" creator="VisuGPX - https://www.visugpx.com">
  <metadata>
    <name>Les Balcons de Beaulieu </name>
    <desc><![CDATA[Randonnée sur les Balcons de Beaulieu-sur-Mer en passant par une partie de la boucle de la "petite Afrique". Cette sortie est à privilégier l'hiver ou au printemps mais pas l'été car beaucoup trop exposée au soleil dans sa seconde partie qui longe la plage entre Eze et Beaulieu.
[url]https://rando-et-trail.blogspot.com/2019/03/les-balcons-de-beaulieu-sur-mer.html[/url]]]></desc>
  </metadata>
  <trk>
    <name><![CDATA[Les Balcons de Beaulieu]]></name>
    <trkseg>
      <trkpt lat="43.70623" lon="7.33554">
        <ele>12.1</ele>
        <time>2019-03-17T09:42:47Z</time>
      </trkpt>
      <trkpt lat="43.70605" lon="7.33545">
        <ele>11.2</ele>
        <time>2019-03-17T09:43:16Z</time>
      </trkpt>
      <trkpt lat="43.70599" lon="7.33523">
        <ele>11.9</ele>
        <time>2019-03-17T09:43:34Z</time>
      </trkpt>
      <trkpt lat="43.70591" lon="7.335">
        <ele>12.7</ele>
        <time>2019-03-17T09:43:54Z</time>
      </trkpt>
      <trkpt lat="43.70589" lon="7.33476">
        <ele>13.5</ele>
        <time>2019-03-17T09:44:12Z</time>
      </trkpt>
      <trkpt lat="43.70599" lon="7.33454">
        <ele>13.6</ele>
        <time>2019-03-17T09:44:35Z</time>
      </trkpt>
      <trkpt lat="43.70605" lon="7.33447">
        <ele>13.6</ele>
        <time>2019-03-17T09:44:44Z</time>
      </trkpt>
      <trkpt lat="43.70609" lon="7.33442">
        <ele>13.6</ele>
        <time>2019-03-17T09:44:48Z</time>
      </trkpt>
      <trkpt lat="43.70616" lon="7.33438">
        <ele>13.6</ele>
        <time>2019-03-17T09:44:50Z</time>
      </trkpt>
      <trkpt lat="43.70633" lon="7.33427">
        <ele>14.1</ele>
        <time>2019-03-17T09:45:00Z</time>
      </trkpt>
      <trkpt lat="43.70645" lon="7.33406">
        <ele>14</ele>
        <time>2019-03-17T09:45:18Z</time>
      </trkpt>
      <trkpt lat="43.70651" lon="7.33399">
        <ele>13.8</ele>
        <time>2019-03-17T09:45:26Z</time>
      </trkpt>
      <trkpt lat="43.70658" lon="7.3339">
        <ele>13.5</ele>
        <time>2019-03-17T09:45:40Z</time>
      </trkpt>
      <trkpt lat="43.70665" lon="7.33386">
        <ele>13.4</ele>
        <time>2019-03-17T09:45:47Z</time>
      </trkpt>
      <trkpt lat="43.70682" lon="7.33378">
        <ele>13</ele>
        <time>2019-03-17T09:46:02Z</time>
      </trkpt>
      <trkpt lat="43.70701" lon="7.33374">
        <ele>12.9</ele>
        <time>2019-03-17T09:46:12Z</time>
      </trkpt>
      <trkpt lat="43.70709" lon="7.33352">
        <ele>14.1</ele>
        <time>2019-03-17T09:46:31Z</time>
      </trkpt>
      <trkpt lat="43.70715" lon="7.33327">
        <ele>16.1</ele>
        <time>2019-03-17T09:46:47Z</time>
      </trkpt>
      <trkpt lat="43.70716" lon="7.33302">
        <ele>18</ele>
        <time>2019-03-17T09:47:03Z</time>
      </trkpt>
      <trkpt lat="43.70723" lon="7.33278">
        <ele>20.1</ele>
        <time>2019-03-17T09:47:19Z</time>
      </trkpt>
      <trkpt lat="43.7072" lon="7.33252">
        <ele>22.2</ele>
        <time>2019-03-17T09:47:36Z</time>
      </trkpt>
      <trkpt lat="43.70725" lon="7.33227">
        <ele>24</ele>
        <time>2019-03-17T09:47:50Z</time>
      </trkpt>
      <trkpt lat="43.70721" lon="7.33203">
        <ele>25.9</ele>
        <time>2019-03-17T09:48:08Z</time>
      </trkpt>
      <trkpt lat="43.70719" lon="7.33178">
        <ele>28.5</ele>
        <time>2019-03-17T09:48:24Z</time>
      </trkpt>
      <trkpt lat="43.70743" lon="7.33165">
        <ele>29.8</ele>
        <time>2019-03-17T09:48:33Z</time>
      </trkpt>
      <trkpt lat="43.70745" lon="7.33164">
        <ele>29.8</ele>
        <time>2019-03-17T09:48:34Z</time>
      </trkpt>
      <trkpt lat="43.70748" lon="7.33163">
        <ele>29.8</ele>
        <time>2019-03-17T09:48:37Z</time>
      </trkpt>
      <trkpt lat="43.7074" lon="7.33156">
        <ele>29.8</ele>
        <time>2019-03-17T09:48:44Z</time>
      </trkpt>
      <trkpt lat="43.70741" lon="7.33149">
        <ele>30.3</ele>
        <time>2019-03-17T09:48:51Z</time>
      </trkpt>
      <trkpt lat="43.70742" lon="7.3314">
        <ele>30.6</ele>
        <time>2019-03-17T09:48:59Z</time>
      </trkpt>
      <trkpt lat="43.70743" lon="7.33122">
        <ele>31.4</ele>
        <time>2019-03-17T09:49:13Z</time>
      </trkpt>
      <trkpt lat="43.70754" lon="7.33101">
        <ele>32.6</ele>
        <time>2019-03-17T09:49:30Z</time>
      </trkpt>
      <trkpt lat="43.70764" lon="7.33094">
        <ele>32.9</ele>
        <time>2019-03-17T09:49:41Z</time>
      </trkpt>
      <trkpt lat="43.70765" lon="7.33094">
        <ele>32.9</ele>
        <time>2019-03-17T09:49:43Z</time>
      </trkpt>
      <trkpt lat="43.70766" lon="7.33095">
        <ele>32.9</ele>
        <time>2019-03-17T09:49:46Z</time>
      </trkpt>
      <trkpt lat="43.70764" lon="7.33093">
        <ele>32.9</ele>
        <time>2019-03-17T09:49:54Z</time>
      </trkpt>
      <trkpt lat="43.70759" lon="7.33093">
        <ele>32.9</ele>
        <time>2019-03-17T09:49:58Z</time>
      </trkpt>
      <trkpt lat="43.70757" lon="7.33092">
        <ele>32.9</ele>
        <time>2019-03-17T09:50:00Z</time>
      </trkpt>
      <trkpt lat="43.70764" lon="7.33087">
        <ele>32.9</ele>
        <time>2019-03-17T09:50:17Z</time>
      </trkpt>
      <trkpt lat="43.70775" lon="7.33067">
        <ele>34.7</ele>
        <time>2019-03-17T09:50:33Z</time>
      </trkpt>
      <trkpt lat="43.70791" lon="7.33052">
        <ele>36.1</ele>
        <time>2019-03-17T09:50:49Z</time>
      </trkpt>
      <trkpt lat="43.70804" lon="7.33034">
        <ele>37.5</ele>
        <time>2019-03-17T09:51:07Z</time>
      </trkpt>
      <trkpt lat="43.70805" lon="7.33022">
        <ele>38.2</ele>
        <time>2019-03-17T09:51:16Z</time>
      </trkpt>
      <trkpt lat="43.70803" lon="7.33018">
        <ele>38.4</ele>
        <time>2019-03-17T09:51:20Z</time>
      </trkpt>
      <trkpt lat="43.70801" lon="7.33016">
        <ele>38.2</ele>
        <time>2019-03-17T09:51:23Z</time>
      </trkpt>
      <trkpt lat="43.70798" lon="7.33014">
        <ele>38.4</ele>
        <time>2019-03-17T09:51:26Z</time>
      </trkpt>
      <trkpt lat="43.70794" lon="7.33011">
        <ele>38.6</ele>
        <time>2019-03-17T09:51:31Z</time>
      </trkpt>
      <trkpt lat="43.7079" lon="7.33009">
        <ele>38.4</ele>
        <time>2019-03-17T09:51:37Z</time>
      </trkpt>
      <trkpt lat="43.70788" lon="7.33008">
        <ele>38.3</ele>
        <time>2019-03-17T09:51:39Z</time>
      </trkpt>
      <trkpt lat="43.70786" lon="7.33005">
        <ele>38.4</ele>
        <time>2019-03-17T09:51:43Z</time>
      </trkpt>
      <trkpt lat="43.70784" lon="7.33003">
        <ele>38.3</ele>
        <time>2019-03-17T09:51:46Z</time>
      </trkpt>
      <trkpt lat="43.70772" lon="7.32984">
        <ele>39.4</ele>
        <time>2019-03-17T09:52:09Z</time>
      </trkpt>
      <trkpt lat="43.70769" lon="7.32981">
        <ele>39.5</ele>
        <time>2019-03-17T09:52:14Z</time>
      </trkpt>
      <trkpt lat="43.70767" lon="7.32973">
        <ele>39.9</ele>
        <time>2019-03-17T09:52:22Z</time>
      </trkpt>
      <trkpt lat="43.70772" lon="7.32947">
        <ele>42.2</ele>
        <time>2019-03-17T09:52:47Z</time>
      </trkpt>
      <trkpt lat="43.70774" lon="7.3294">
        <ele>43</ele>
        <time>2019-03-17T09:52:55Z</time>
      </trkpt>
      <trkpt lat="43.70785" lon="7.32919">
        <ele>46.4</ele>
        <time>2019-03-17T09:53:19Z</time>
      </trkpt>
      <trkpt lat="43.70789" lon="7.32914">
        <ele>47.4</ele>
        <time>2019-03-17T09:53:23Z</time>
      </trkpt>
      <trkpt lat="43.70789" lon="7.32888">
        <ele>50.4</ele>
        <time>2019-03-17T09:53:46Z</time>
      </trkpt>
      <trkpt lat="43.7079" lon="7.32863">
        <ele>52.5</ele>
        <time>2019-03-17T09:54:07Z</time>
      </trkpt>
      <trkpt lat="43.70789" lon="7.32851">
        <ele>53.5</ele>
        <time>2019-03-17T09:54:17Z</time>
      </trkpt>
      <trkpt lat="43.70791" lon="7.32826">
        <ele>55.7</ele>
        <time>2019-03-17T09:54:37Z</time>
      </trkpt>
      <trkpt lat="43.70793" lon="7.32818">
        <ele>56.5</ele>
        <time>2019-03-17T09:54:45Z</time>
      </trkpt>
      <trkpt lat="43.70793" lon="7.32813">
        <ele>56.9</ele>
        <time>2019-03-17T09:54:48Z</time>
      </trkpt>
      <trkpt lat="43.70792" lon="7.32788">
        <ele>59.2</ele>
        <time>2019-03-17T09:55:07Z</time>
      </trkpt>
      <trkpt lat="43.70802" lon="7.32772">
        <ele>61</ele>
        <time>2019-03-17T09:55:22Z</time>
      </trkpt>
      <trkpt lat="43.70811" lon="7.32751">
        <ele>65.1</ele>
        <time>2019-03-17T09:55:42Z</time>
      </trkpt>
      <trkpt lat="43.70815" lon="7.3272">
        <ele>69.9</ele>
        <time>2019-03-17T09:56:04Z</time>
      </trkpt>
      <trkpt lat="43.70816" lon="7.32717">
        <ele>70.4</ele>
        <time>2019-03-17T09:56:09Z</time>
      </trkpt>
      <trkpt lat="43.70819" lon="7.32712">
        <ele>71.4</ele>
        <time>2019-03-17T09:56:14Z</time>
      </trkpt>
      <trkpt lat="43.70819" lon="7.32708">
        <ele>71.9</ele>
        <time>2019-03-17T09:56:18Z</time>
      </trkpt>
      <trkpt lat="43.7082" lon="7.32706">
        <ele>72.1</ele>
        <time>2019-03-17T09:56:20Z</time>
      </trkpt>
      <trkpt lat="43.70825" lon="7.32681">
        <ele>75.1</ele>
        <time>2019-03-17T09:56:44Z</time>
      </trkpt>
      <trkpt lat="43.70836" lon="7.3267">
        <ele>77.2</ele>
        <time>2019-03-17T09:56:57Z</time>
      </trkpt>
      <trkpt lat="43.70841" lon="7.32662">
        <ele>78.4</ele>
        <time>2019-03-17T09:57:04Z</time>
      </trkpt>
      <trkpt lat="43.70842" lon="7.32644">
        <ele>81.9</ele>
        <time>2019-03-17T09:57:19Z</time>
      </trkpt>
      <trkpt lat="43.70851" lon="7.3263">
        <ele>84.3</ele>
        <time>2019-03-17T09:57:36Z</time>
      </trkpt>
      <trkpt lat="43.70859" lon="7.32607">
        <ele>87.3</ele>
        <time>2019-03-17T09:57:55Z</time>
      </trkpt>
      <trkpt lat="43.70867" lon="7.32585">
        <ele>90.6</ele>
        <time>2019-03-17T09:58:16Z</time>
      </trkpt>
      <trkpt lat="43.7087" lon="7.32582">
        <ele>93.4</ele>
        <time>2019-03-17T09:58:22Z</time>
      </trkpt>
      <trkpt lat="43.70875" lon="7.32571">
        <ele>93.4</ele>
        <time>2019-03-17T09:58:33Z</time>
      </trkpt>
      <trkpt lat="43.70881" lon="7.32546">
        <ele>96.1</ele>
        <time>2019-03-17T09:58:54Z</time>
      </trkpt>
      <trkpt lat="43.70889" lon="7.32524">
        <ele>99.1</ele>
        <time>2019-03-17T09:59:15Z</time>
      </trkpt>
      <trkpt lat="43.70901" lon="7.32504">
        <ele>102.5</ele>
        <time>2019-03-17T09:59:33Z</time>
      </trkpt>
      <trkpt lat="43.70917" lon="7.32493">
        <ele>107</ele>
        <time>2019-03-17T09:59:52Z</time>
      </trkpt>
      <trkpt lat="43.7092" lon="7.32494">
        <ele>107.8</ele>
        <time>2019-03-17T09:59:54Z</time>
      </trkpt>
      <trkpt lat="43.70927" lon="7.32497">
        <ele>108.9</ele>
        <time>2019-03-17T09:59:57Z</time>
      </trkpt>
      <trkpt lat="43.70944" lon="7.32487">
        <ele>111.1</ele>
        <time>2019-03-17T10:00:14Z</time>
      </trkpt>
      <trkpt lat="43.70951" lon="7.32462">
        <ele>115.1</ele>
        <time>2019-03-17T10:00:35Z</time>
      </trkpt>
      <trkpt lat="43.70966" lon="7.32448">
        <ele>119.2</ele>
        <time>2019-03-17T10:00:52Z</time>
      </trkpt>
      <trkpt lat="43.70977" lon="7.32427">
        <ele>123.2</ele>
        <time>2019-03-17T10:01:12Z</time>
      </trkpt>
      <trkpt lat="43.70989" lon="7.32406">
        <ele>126.5</ele>
        <time>2019-03-17T10:01:34Z</time>
      </trkpt>
      <trkpt lat="43.70992" lon="7.32398">
        <ele>127.6</ele>
        <time>2019-03-17T10:01:43Z</time>
      </trkpt>
      <trkpt lat="43.71001" lon="7.32384">
        <ele>129.4</ele>
        <time>2019-03-17T10:02:16Z</time>
      </trkpt>
      <trkpt lat="43.71" lon="7.3238">
        <ele>129.9</ele>
        <time>2019-03-17T10:02:19Z</time>
      </trkpt>
      <trkpt lat="43.71001" lon="7.32376">
        <ele>130.4</ele>
        <time>2019-03-17T10:02:23Z</time>
      </trkpt>
      <trkpt lat="43.71009" lon="7.32371">
        <ele>131.2</ele>
        <time>2019-03-17T10:02:36Z</time>
      </trkpt>
      <trkpt lat="43.7101" lon="7.32369">
        <ele>131.3</ele>
        <time>2019-03-17T10:02:39Z</time>
      </trkpt>
      <trkpt lat="43.71017" lon="7.32345">
        <ele>133.4</ele>
        <time>2019-03-17T10:03:13Z</time>
      </trkpt>
      <trkpt lat="43.71034" lon="7.32335">
        <ele>136.2</ele>
        <time>2019-03-17T10:03:41Z</time>
      </trkpt>
      <trkpt lat="43.71032" lon="7.32326">
        <ele>137.1</ele>
        <time>2019-03-17T10:04:18Z</time>
      </trkpt>
      <trkpt lat="43.71042" lon="7.32308">
        <ele>139.5</ele>
        <time>2019-03-17T10:04:56Z</time>
      </trkpt>
      <trkpt lat="43.71058" lon="7.32295">
        <ele>142.9</ele>
        <time>2019-03-17T10:05:23Z</time>
      </trkpt>
      <trkpt lat="43.71059" lon="7.32287">
        <ele>143.8</ele>
        <time>2019-03-17T10:05:29Z</time>
      </trkpt>
      <trkpt lat="43.71057" lon="7.32283">
        <ele>144.1</ele>
        <time>2019-03-17T10:05:34Z</time>
      </trkpt>
      <trkpt lat="43.71048" lon="7.32275">
        <ele>145.1</ele>
        <time>2019-03-17T10:07:04Z</time>
      </trkpt>
      <trkpt lat="43.71056" lon="7.3228">
        <ele>145.9</ele>
        <time>2019-03-17T10:07:47Z</time>
      </trkpt>
      <trkpt lat="43.7106" lon="7.32257">
        <ele>147.7</ele>
        <time>2019-03-17T10:08:10Z</time>
      </trkpt>
      <trkpt lat="43.71067" lon="7.32234">
        <ele>149.5</ele>
        <time>2019-03-17T10:08:32Z</time>
      </trkpt>
      <trkpt lat="43.71074" lon="7.32222">
        <ele>151.1</ele>
        <time>2019-03-17T10:08:45Z</time>
      </trkpt>
      <trkpt lat="43.71082" lon="7.3222">
        <ele>152.3</ele>
        <time>2019-03-17T10:09:28Z</time>
      </trkpt>
      <trkpt lat="43.71083" lon="7.32241">
        <ele>152.4</ele>
        <time>2019-03-17T10:10:04Z</time>
      </trkpt>
      <trkpt lat="43.7109" lon="7.32252">
        <ele>152.4</ele>
        <time>2019-03-17T10:10:58Z</time>
      </trkpt>
      <trkpt lat="43.71093" lon="7.32244">
        <ele>152.3</ele>
        <time>2019-03-17T10:11:24Z</time>
      </trkpt>
      <trkpt lat="43.71093" lon="7.32254">
        <ele>152.3</ele>
        <time>2019-03-17T10:11:39Z</time>
      </trkpt>
      <trkpt lat="43.71093" lon="7.32257">
        <ele>152.3</ele>
        <time>2019-03-17T10:11:41Z</time>
      </trkpt>
      <trkpt lat="43.71092" lon="7.32279">
        <ele>151.9</ele>
        <time>2019-03-17T10:11:58Z</time>
      </trkpt>
      <trkpt lat="43.71093" lon="7.32287">
        <ele>151.7</ele>
        <time>2019-03-17T10:12:05Z</time>
      </trkpt>
      <trkpt lat="43.71089" lon="7.32311">
        <ele>151</ele>
        <time>2019-03-17T10:12:20Z</time>
      </trkpt>
      <trkpt lat="43.7108" lon="7.32332">
        <ele>150.2</ele>
        <time>2019-03-17T10:12:36Z</time>
      </trkpt>
      <trkpt lat="43.71073" lon="7.32357">
        <ele>149.6</ele>
        <time>2019-03-17T10:12:53Z</time>
      </trkpt>
      <trkpt lat="43.71065" lon="7.3238">
        <ele>148.9</ele>
        <time>2019-03-17T10:13:10Z</time>
      </trkpt>
      <trkpt lat="43.71057" lon="7.32404">
        <ele>148</ele>
        <time>2019-03-17T10:13:26Z</time>
      </trkpt>
      <trkpt lat="43.7105" lon="7.32428">
        <ele>147.3</ele>
        <time>2019-03-17T10:13:44Z</time>
      </trkpt>
      <trkpt lat="43.71039" lon="7.3245">
        <ele>146.5</ele>
        <time>2019-03-17T10:14:01Z</time>
      </trkpt>
      <trkpt lat="43.71029" lon="7.3247">
        <ele>145.7</ele>
        <time>2019-03-17T10:14:17Z</time>
      </trkpt>
      <trkpt lat="43.71026" lon="7.32495">
        <ele>145.1</ele>
        <time>2019-03-17T10:14:33Z</time>
      </trkpt>
      <trkpt lat="43.71024" lon="7.32521">
        <ele>144.2</ele>
        <time>2019-03-17T10:14:49Z</time>
      </trkpt>
      <trkpt lat="43.71021" lon="7.32547">
        <ele>143.4</ele>
        <time>2019-03-17T10:15:04Z</time>
      </trkpt>
      <trkpt lat="43.71019" lon="7.32573">
        <ele>142.8</ele>
        <time>2019-03-17T10:15:21Z</time>
      </trkpt>
      <trkpt lat="43.71021" lon="7.32599">
        <ele>141.9</ele>
        <time>2019-03-17T10:15:37Z</time>
      </trkpt>
      <trkpt lat="43.71025" lon="7.32624">
        <ele>141.4</ele>
        <time>2019-03-17T10:15:52Z</time>
      </trkpt>
      <trkpt lat="43.71028" lon="7.32642">
        <ele>141.6</ele>
        <time>2019-03-17T10:16:05Z</time>
      </trkpt>
      <trkpt lat="43.71028" lon="7.3264">
        <ele>141.7</ele>
        <time>2019-03-17T10:16:07Z</time>
      </trkpt>
      <trkpt lat="43.71034" lon="7.32642">
        <ele>142.8</ele>
        <time>2019-03-17T10:16:55Z</time>
      </trkpt>
      <trkpt lat="43.71044" lon="7.32664">
        <ele>146</ele>
        <time>2019-03-17T10:17:21Z</time>
      </trkpt>
      <trkpt lat="43.71047" lon="7.32668">
        <ele>146.7</ele>
        <time>2019-03-17T10:17:26Z</time>
      </trkpt>
      <trkpt lat="43.71051" lon="7.32675">
        <ele>147.6</ele>
        <time>2019-03-17T10:17:33Z</time>
      </trkpt>
      <trkpt lat="43.71055" lon="7.32699">
        <ele>148.4</ele>
        <time>2019-03-17T10:17:51Z</time>
      </trkpt>
      <trkpt lat="43.71062" lon="7.32723">
        <ele>148.8</ele>
        <time>2019-03-17T10:18:09Z</time>
      </trkpt>
      <trkpt lat="43.71066" lon="7.32748">
        <ele>149.3</ele>
        <time>2019-03-17T10:18:36Z</time>
      </trkpt>
      <trkpt lat="43.71076" lon="7.3277">
        <ele>150</ele>
        <time>2019-03-17T10:18:55Z</time>
      </trkpt>
      <trkpt lat="43.71083" lon="7.32794">
        <ele>150.9</ele>
        <time>2019-03-17T10:19:12Z</time>
      </trkpt>
      <trkpt lat="43.71094" lon="7.32813">
        <ele>152.5</ele>
        <time>2019-03-17T10:19:31Z</time>
      </trkpt>
      <trkpt lat="43.7111" lon="7.32828">
        <ele>154.7</ele>
        <time>2019-03-17T10:19:51Z</time>
      </trkpt>
      <trkpt lat="43.71124" lon="7.32843">
        <ele>156.5</ele>
        <time>2019-03-17T10:20:11Z</time>
      </trkpt>
      <trkpt lat="43.71137" lon="7.32862">
        <ele>158.2</ele>
        <time>2019-03-17T10:20:29Z</time>
      </trkpt>
      <trkpt lat="43.71151" lon="7.32878">
        <ele>158.8</ele>
        <time>2019-03-17T10:20:48Z</time>
      </trkpt>
      <trkpt lat="43.71151" lon="7.32879">
        <ele>158.8</ele>
        <time>2019-03-17T10:20:51Z</time>
      </trkpt>
      <trkpt lat="43.71151" lon="7.32881">
        <ele>158.7</ele>
        <time>2019-03-17T10:20:53Z</time>
      </trkpt>
      <trkpt lat="43.71151" lon="7.32882">
        <ele>158.7</ele>
        <time>2019-03-17T10:20:57Z</time>
      </trkpt>
      <trkpt lat="43.71154" lon="7.32904">
        <ele>157.7</ele>
        <time>2019-03-17T10:21:16Z</time>
      </trkpt>
      <trkpt lat="43.71156" lon="7.32914">
        <ele>158.1</ele>
        <time>2019-03-17T10:21:29Z</time>
      </trkpt>
      <trkpt lat="43.71166" lon="7.32936">
        <ele>159.3</ele>
        <time>2019-03-17T10:21:57Z</time>
      </trkpt>
      <trkpt lat="43.71167" lon="7.32939">
        <ele>159.5</ele>
        <time>2019-03-17T10:21:59Z</time>
      </trkpt>
      <trkpt lat="43.71169" lon="7.32943">
        <ele>159.8</ele>
        <time>2019-03-17T10:22:03Z</time>
      </trkpt>
      <trkpt lat="43.7118" lon="7.32963">
        <ele>160.8</ele>
        <time>2019-03-17T10:22:21Z</time>
      </trkpt>
      <trkpt lat="43.71186" lon="7.32968">
        <ele>161</ele>
        <time>2019-03-17T10:22:30Z</time>
      </trkpt>
      <trkpt lat="43.71187" lon="7.32968">
        <ele>161</ele>
        <time>2019-03-17T10:22:32Z</time>
      </trkpt>
      <trkpt lat="43.71193" lon="7.32976">
        <ele>162</ele>
        <time>2019-03-17T10:22:46Z</time>
      </trkpt>
      <trkpt lat="43.71208" lon="7.32988">
        <ele>164.5</ele>
        <time>2019-03-17T10:23:16Z</time>
      </trkpt>
      <trkpt lat="43.71217" lon="7.32998">
        <ele>166.1</ele>
        <time>2019-03-17T10:24:12Z</time>
      </trkpt>
      <trkpt lat="43.71218" lon="7.33">
        <ele>166.4</ele>
        <time>2019-03-17T10:24:14Z</time>
      </trkpt>
      <trkpt lat="43.71227" lon="7.33021">
        <ele>169</ele>
        <time>2019-03-17T10:24:45Z</time>
      </trkpt>
      <trkpt lat="43.71239" lon="7.33041">
        <ele>170.6</ele>
        <time>2019-03-17T10:25:10Z</time>
      </trkpt>
      <trkpt lat="43.7125" lon="7.33063">
        <ele>171.6</ele>
        <time>2019-03-17T10:25:38Z</time>
      </trkpt>
      <trkpt lat="43.71263" lon="7.33079">
        <ele>172.2</ele>
        <time>2019-03-17T10:25:59Z</time>
      </trkpt>
      <trkpt lat="43.71277" lon="7.33091">
        <ele>175.4</ele>
        <time>2019-03-17T10:26:40Z</time>
      </trkpt>
      <trkpt lat="43.71295" lon="7.33093">
        <ele>181.2</ele>
        <time>2019-03-17T10:27:31Z</time>
      </trkpt>
      <trkpt lat="43.71308" lon="7.33105">
        <ele>185.3</ele>
        <time>2019-03-17T10:28:24Z</time>
      </trkpt>
      <trkpt lat="43.71323" lon="7.33117">
        <ele>190.2</ele>
        <time>2019-03-17T10:28:53Z</time>
      </trkpt>
      <trkpt lat="43.71334" lon="7.33132">
        <ele>194.8</ele>
        <time>2019-03-17T10:29:34Z</time>
      </trkpt>
      <trkpt lat="43.71343" lon="7.33147">
        <ele>198.5</ele>
        <time>2019-03-17T10:30:48Z</time>
      </trkpt>
      <trkpt lat="43.71353" lon="7.3316">
        <ele>201.6</ele>
        <time>2019-03-17T10:31:33Z</time>
      </trkpt>
      <trkpt lat="43.71365" lon="7.33176">
        <ele>203.9</ele>
        <time>2019-03-17T10:32:01Z</time>
      </trkpt>
      <trkpt lat="43.71371" lon="7.33198">
        <ele>204.9</ele>
        <time>2019-03-17T10:32:54Z</time>
      </trkpt>
      <trkpt lat="43.71382" lon="7.33218">
        <ele>206.2</ele>
        <time>2019-03-17T10:33:31Z</time>
      </trkpt>
      <trkpt lat="43.71396" lon="7.33233">
        <ele>209.4</ele>
        <time>2019-03-17T10:34:04Z</time>
      </trkpt>
      <trkpt lat="43.71408" lon="7.33248">
        <ele>213.1</ele>
        <time>2019-03-17T10:34:49Z</time>
      </trkpt>
      <trkpt lat="43.71414" lon="7.33258">
        <ele>215.2</ele>
        <time>2019-03-17T10:35:48Z</time>
      </trkpt>
      <trkpt lat="43.71429" lon="7.33272">
        <ele>218.8</ele>
        <time>2019-03-17T10:36:06Z</time>
      </trkpt>
      <trkpt lat="43.71431" lon="7.33273">
        <ele>219</ele>
        <time>2019-03-17T10:36:08Z</time>
      </trkpt>
      <trkpt lat="43.71432" lon="7.33274">
        <ele>219.3</ele>
        <time>2019-03-17T10:36:10Z</time>
      </trkpt>
      <trkpt lat="43.71433" lon="7.33288">
        <ele>220.9</ele>
        <time>2019-03-17T10:37:55Z</time>
      </trkpt>
      <trkpt lat="43.71433" lon="7.33285">
        <ele>221.7</ele>
        <time>2019-03-17T10:39:55Z</time>
      </trkpt>
      <trkpt lat="43.71443" lon="7.333">
        <ele>223.7</ele>
        <time>2019-03-17T10:40:49Z</time>
      </trkpt>
      <trkpt lat="43.71453" lon="7.33317">
        <ele>222.7</ele>
        <time>2019-03-17T10:41:41Z</time>
      </trkpt>
      <trkpt lat="43.7146" lon="7.33339">
        <ele>224.3</ele>
        <time>2019-03-17T10:42:07Z</time>
      </trkpt>
      <trkpt lat="43.71467" lon="7.33348">
        <ele>221.9</ele>
        <time>2019-03-17T10:42:50Z</time>
      </trkpt>
      <trkpt lat="43.7148" lon="7.33362">
        <ele>222.7</ele>
        <time>2019-03-17T10:43:40Z</time>
      </trkpt>
      <trkpt lat="43.71489" lon="7.33382">
        <ele>227.3</ele>
        <time>2019-03-17T10:44:18Z</time>
      </trkpt>
      <trkpt lat="43.71492" lon="7.33383">
        <ele>228.6</ele>
        <time>2019-03-17T10:45:43Z</time>
      </trkpt>
      <trkpt lat="43.71506" lon="7.33398">
        <ele>236.8</ele>
        <time>2019-03-17T10:46:20Z</time>
      </trkpt>
      <trkpt lat="43.71523" lon="7.33403">
        <ele>245.6</ele>
        <time>2019-03-17T10:46:51Z</time>
      </trkpt>
      <trkpt lat="43.71508" lon="7.33401">
        <ele>253.8</ele>
        <time>2019-03-17T10:47:44Z</time>
      </trkpt>
      <trkpt lat="43.71491" lon="7.334">
        <ele>266.6</ele>
        <time>2019-03-17T10:48:03Z</time>
      </trkpt>
      <trkpt lat="43.71476" lon="7.3341">
        <ele>278.1</ele>
        <time>2019-03-17T10:48:33Z</time>
      </trkpt>
      <trkpt lat="43.71508" lon="7.3341">
        <ele>287</ele>
        <time>2019-03-17T10:49:55Z</time>
      </trkpt>
      <trkpt lat="43.71518" lon="7.33423">
        <ele>287.7</ele>
        <time>2019-03-17T10:51:19Z</time>
      </trkpt>
      <trkpt lat="43.71535" lon="7.33433">
        <ele>290.8</ele>
        <time>2019-03-17T10:51:53Z</time>
      </trkpt>
      <trkpt lat="43.71538" lon="7.33428">
        <ele>291.6</ele>
        <time>2019-03-17T10:52:51Z</time>
      </trkpt>
      <trkpt lat="43.71534" lon="7.33441">
        <ele>293</ele>
        <time>2019-03-17T10:53:54Z</time>
      </trkpt>
      <trkpt lat="43.71535" lon="7.33454">
        <ele>293.7</ele>
        <time>2019-03-17T10:54:53Z</time>
      </trkpt>
      <trkpt lat="43.71537" lon="7.33456">
        <ele>293.8</ele>
        <time>2019-03-17T10:54:56Z</time>
      </trkpt>
      <trkpt lat="43.71549" lon="7.33456">
        <ele>294.6</ele>
        <time>2019-03-17T10:55:20Z</time>
      </trkpt>
      <trkpt lat="43.71563" lon="7.33438">
        <ele>295.2</ele>
        <time>2019-03-17T10:56:17Z</time>
      </trkpt>
      <trkpt lat="43.71572" lon="7.33431">
        <ele>295.1</ele>
        <time>2019-03-17T10:58:03Z</time>
      </trkpt>
      <trkpt lat="43.71584" lon="7.33431">
        <ele>294.5</ele>
        <time>2019-03-17T10:58:32Z</time>
      </trkpt>
      <trkpt lat="43.71588" lon="7.33453">
        <ele>294.5</ele>
        <time>2019-03-17T10:59:08Z</time>
      </trkpt>
      <trkpt lat="43.716" lon="7.33445">
        <ele>294.7</ele>
        <time>2019-03-17T11:00:05Z</time>
      </trkpt>
      <trkpt lat="43.71601" lon="7.33444">
        <ele>294.8</ele>
        <time>2019-03-17T11:01:50Z</time>
      </trkpt>
      <trkpt lat="43.71606" lon="7.33449">
        <ele>295.1</ele>
        <time>2019-03-17T11:04:43Z</time>
      </trkpt>
      <trkpt lat="43.71606" lon="7.33444">
        <ele>295.3</ele>
        <time>2019-03-17T11:07:20Z</time>
      </trkpt>
      <trkpt lat="43.71601" lon="7.33445">
        <ele>295</ele>
        <time>2019-03-17T11:09:48Z</time>
      </trkpt>
      <trkpt lat="43.71604" lon="7.33444">
        <ele>294.9</ele>
        <time>2019-03-17T11:12:00Z</time>
      </trkpt>
      <trkpt lat="43.71605" lon="7.33445">
        <ele>294.8</ele>
        <time>2019-03-17T11:15:22Z</time>
      </trkpt>
      <trkpt lat="43.71598" lon="7.33447">
        <ele>294.4</ele>
        <time>2019-03-17T11:17:25Z</time>
      </trkpt>
      <trkpt lat="43.71601" lon="7.33443">
        <ele>294.3</ele>
        <time>2019-03-17T11:20:33Z</time>
      </trkpt>
      <trkpt lat="43.71601" lon="7.33446">
        <ele>294.2</ele>
        <time>2019-03-17T11:23:24Z</time>
      </trkpt>
      <trkpt lat="43.71603" lon="7.3344">
        <ele>293.9</ele>
        <time>2019-03-17T11:25:37Z</time>
      </trkpt>
      <trkpt lat="43.71603" lon="7.33443">
        <ele>293.8</ele>
        <time>2019-03-17T11:28:02Z</time>
      </trkpt>
      <trkpt lat="43.71606" lon="7.33449">
        <ele>293.6</ele>
        <time>2019-03-17T11:29:05Z</time>
      </trkpt>
      <trkpt lat="43.71598" lon="7.33446">
        <ele>293.2</ele>
        <time>2019-03-17T11:31:14Z</time>
      </trkpt>
      <trkpt lat="43.71602" lon="7.33448">
        <ele>292.8</ele>
        <time>2019-03-17T11:33:52Z</time>
      </trkpt>
      <trkpt lat="43.71601" lon="7.33444">
        <ele>292.5</ele>
        <time>2019-03-17T11:36:39Z</time>
      </trkpt>
      <trkpt lat="43.71602" lon="7.33452">
        <ele>291.8</ele>
        <time>2019-03-17T11:38:56Z</time>
      </trkpt>
      <trkpt lat="43.7161" lon="7.33462">
        <ele>291.1</ele>
        <time>2019-03-17T11:40:10Z</time>
      </trkpt>
      <trkpt lat="43.71611" lon="7.33468">
        <ele>290.9</ele>
        <time>2019-03-17T11:40:15Z</time>
      </trkpt>
      <trkpt lat="43.71611" lon="7.3347">
        <ele>290.8</ele>
        <time>2019-03-17T11:40:17Z</time>
      </trkpt>
      <trkpt lat="43.71612" lon="7.33473">
        <ele>290.6</ele>
        <time>2019-03-17T11:40:20Z</time>
      </trkpt>
      <trkpt lat="43.71613" lon="7.33478">
        <ele>290.4</ele>
        <time>2019-03-17T11:40:24Z</time>
      </trkpt>
      <trkpt lat="43.71613" lon="7.33482">
        <ele>290.2</ele>
        <time>2019-03-17T11:40:28Z</time>
      </trkpt>
      <trkpt lat="43.71613" lon="7.33488">
        <ele>289.9</ele>
        <time>2019-03-17T11:40:35Z</time>
      </trkpt>
      <trkpt lat="43.71611" lon="7.33496">
        <ele>289.5</ele>
        <time>2019-03-17T11:41:11Z</time>
      </trkpt>
      <trkpt lat="43.7161" lon="7.33498">
        <ele>289.5</ele>
        <time>2019-03-17T11:41:13Z</time>
      </trkpt>
      <trkpt lat="43.71613" lon="7.33514">
        <ele>288.7</ele>
        <time>2019-03-17T11:41:53Z</time>
      </trkpt>
      <trkpt lat="43.71612" lon="7.3353">
        <ele>288.2</ele>
        <time>2019-03-17T11:42:08Z</time>
      </trkpt>
      <trkpt lat="43.71613" lon="7.33535">
        <ele>288</ele>
        <time>2019-03-17T11:42:13Z</time>
      </trkpt>
      <trkpt lat="43.71612" lon="7.33537">
        <ele>288</ele>
        <time>2019-03-17T11:42:15Z</time>
      </trkpt>
      <trkpt lat="43.71612" lon="7.33541">
        <ele>287.8</ele>
        <time>2019-03-17T11:42:18Z</time>
      </trkpt>
      <trkpt lat="43.71606" lon="7.33566">
        <ele>286.8</ele>
        <time>2019-03-17T11:42:36Z</time>
      </trkpt>
      <trkpt lat="43.71607" lon="7.33591">
        <ele>285.3</ele>
        <time>2019-03-17T11:42:53Z</time>
      </trkpt>
      <trkpt lat="43.71607" lon="7.33595">
        <ele>285</ele>
        <time>2019-03-17T11:42:58Z</time>
      </trkpt>
      <trkpt lat="43.71608" lon="7.336">
        <ele>284.7</ele>
        <time>2019-03-17T11:43:03Z</time>
      </trkpt>
      <trkpt lat="43.71609" lon="7.33603">
        <ele>284.5</ele>
        <time>2019-03-17T11:43:05Z</time>
      </trkpt>
      <trkpt lat="43.7161" lon="7.33607">
        <ele>284.2</ele>
        <time>2019-03-17T11:43:08Z</time>
      </trkpt>
      <trkpt lat="43.71613" lon="7.33619">
        <ele>283.3</ele>
        <time>2019-03-17T11:43:18Z</time>
      </trkpt>
      <trkpt lat="43.71613" lon="7.33621">
        <ele>283.2</ele>
        <time>2019-03-17T11:43:20Z</time>
      </trkpt>
      <trkpt lat="43.71613" lon="7.33626">
        <ele>282.8</ele>
        <time>2019-03-17T11:43:24Z</time>
      </trkpt>
      <trkpt lat="43.71613" lon="7.33629">
        <ele>282.6</ele>
        <time>2019-03-17T11:43:27Z</time>
      </trkpt>
      <trkpt lat="43.71613" lon="7.33632">
        <ele>282.4</ele>
        <time>2019-03-17T11:43:30Z</time>
      </trkpt>
      <trkpt lat="43.71613" lon="7.33636">
        <ele>282.3</ele>
        <time>2019-03-17T11:43:33Z</time>
      </trkpt>
      <trkpt lat="43.71615" lon="7.33639">
        <ele>282.1</ele>
        <time>2019-03-17T11:43:37Z</time>
      </trkpt>
      <trkpt lat="43.71616" lon="7.33641">
        <ele>281.7</ele>
        <time>2019-03-17T11:43:39Z</time>
      </trkpt>
      <trkpt lat="43.7162" lon="7.33645">
        <ele>281</ele>
        <time>2019-03-17T11:43:43Z</time>
      </trkpt>
      <trkpt lat="43.71621" lon="7.33645">
        <ele>280.8</ele>
        <time>2019-03-17T11:43:45Z</time>
      </trkpt>
      <trkpt lat="43.71624" lon="7.33647">
        <ele>280.2</ele>
        <time>2019-03-17T11:43:51Z</time>
      </trkpt>
      <trkpt lat="43.71625" lon="7.33649">
        <ele>279.8</ele>
        <time>2019-03-17T11:43:54Z</time>
      </trkpt>
      <trkpt lat="43.71626" lon="7.33652">
        <ele>279.3</ele>
        <time>2019-03-17T11:43:58Z</time>
      </trkpt>
      <trkpt lat="43.71631" lon="7.33664">
        <ele>277.5</ele>
        <time>2019-03-17T11:44:12Z</time>
      </trkpt>
      <trkpt lat="43.71631" lon="7.33666">
        <ele>277.2</ele>
        <time>2019-03-17T11:44:15Z</time>
      </trkpt>
      <trkpt lat="43.71631" lon="7.33675">
        <ele>276</ele>
        <time>2019-03-17T11:44:23Z</time>
      </trkpt>
      <trkpt lat="43.71632" lon="7.33679">
        <ele>275.4</ele>
        <time>2019-03-17T11:44:27Z</time>
      </trkpt>
      <trkpt lat="43.71633" lon="7.33683">
        <ele>274.9</ele>
        <time>2019-03-17T11:44:31Z</time>
      </trkpt>
      <trkpt lat="43.71633" lon="7.33688">
        <ele>275</ele>
        <time>2019-03-17T11:44:36Z</time>
      </trkpt>
      <trkpt lat="43.71633" lon="7.33691">
        <ele>275.4</ele>
        <time>2019-03-17T11:44:38Z</time>
      </trkpt>
      <trkpt lat="43.71637" lon="7.33711">
        <ele>272.4</ele>
        <time>2019-03-17T11:44:55Z</time>
      </trkpt>
      <trkpt lat="43.71642" lon="7.33735">
        <ele>268.3</ele>
        <time>2019-03-17T11:45:32Z</time>
      </trkpt>
      <trkpt lat="43.71643" lon="7.3376">
        <ele>265.4</ele>
        <time>2019-03-17T11:46:13Z</time>
      </trkpt>
      <trkpt lat="43.7165" lon="7.33784">
        <ele>262.4</ele>
        <time>2019-03-17T11:46:40Z</time>
      </trkpt>
      <trkpt lat="43.71652" lon="7.33788">
        <ele>261.9</ele>
        <time>2019-03-17T11:46:44Z</time>
      </trkpt>
      <trkpt lat="43.71654" lon="7.33794">
        <ele>261.3</ele>
        <time>2019-03-17T11:46:48Z</time>
      </trkpt>
      <trkpt lat="43.71659" lon="7.33818">
        <ele>257.5</ele>
        <time>2019-03-17T11:47:08Z</time>
      </trkpt>
      <trkpt lat="43.71667" lon="7.3384">
        <ele>254.5</ele>
        <time>2019-03-17T11:47:29Z</time>
      </trkpt>
      <trkpt lat="43.71674" lon="7.33864">
        <ele>253</ele>
        <time>2019-03-17T11:47:49Z</time>
      </trkpt>
      <trkpt lat="43.71676" lon="7.33868">
        <ele>251.8</ele>
        <time>2019-03-17T11:47:54Z</time>
      </trkpt>
      <trkpt lat="43.71677" lon="7.3387">
        <ele>251.6</ele>
        <time>2019-03-17T11:47:56Z</time>
      </trkpt>
      <trkpt lat="43.71675" lon="7.33852">
        <ele>248.3</ele>
        <time>2019-03-17T11:49:06Z</time>
      </trkpt>
      <trkpt lat="43.71684" lon="7.33844">
        <ele>246.8</ele>
        <time>2019-03-17T11:49:38Z</time>
      </trkpt>
      <trkpt lat="43.71689" lon="7.33867">
        <ele>245.3</ele>
        <time>2019-03-17T11:50:02Z</time>
      </trkpt>
      <trkpt lat="43.71694" lon="7.33892">
        <ele>244.2</ele>
        <time>2019-03-17T11:50:27Z</time>
      </trkpt>
      <trkpt lat="43.717" lon="7.33916">
        <ele>242.6</ele>
        <time>2019-03-17T11:50:53Z</time>
      </trkpt>
      <trkpt lat="43.71706" lon="7.33941">
        <ele>240.9</ele>
        <time>2019-03-17T11:51:15Z</time>
      </trkpt>
      <trkpt lat="43.71706" lon="7.33953">
        <ele>240.5</ele>
        <time>2019-03-17T11:51:25Z</time>
      </trkpt>
      <trkpt lat="43.71706" lon="7.33955">
        <ele>240.2</ele>
        <time>2019-03-17T11:51:27Z</time>
      </trkpt>
      <trkpt lat="43.71711" lon="7.33975">
        <ele>238.9</ele>
        <time>2019-03-17T11:52:10Z</time>
      </trkpt>
      <trkpt lat="43.71718" lon="7.34">
        <ele>236.7</ele>
        <time>2019-03-17T11:52:43Z</time>
      </trkpt>
      <trkpt lat="43.71719" lon="7.34025">
        <ele>233.3</ele>
        <time>2019-03-17T11:53:10Z</time>
      </trkpt>
      <trkpt lat="43.71723" lon="7.3405">
        <ele>227.5</ele>
        <time>2019-03-17T11:53:48Z</time>
      </trkpt>
      <trkpt lat="43.71716" lon="7.34074">
        <ele>221.3</ele>
        <time>2019-03-17T11:54:16Z</time>
      </trkpt>
      <trkpt lat="43.71721" lon="7.341">
        <ele>211.7</ele>
        <time>2019-03-17T11:54:49Z</time>
      </trkpt>
      <trkpt lat="43.71739" lon="7.34098">
        <ele>206.5</ele>
        <time>2019-03-17T11:55:38Z</time>
      </trkpt>
      <trkpt lat="43.7175" lon="7.34117">
        <ele>202</ele>
        <time>2019-03-17T11:56:16Z</time>
      </trkpt>
      <trkpt lat="43.7175" lon="7.34119">
        <ele>201.6</ele>
        <time>2019-03-17T11:56:18Z</time>
      </trkpt>
      <trkpt lat="43.71751" lon="7.34123">
        <ele>200.6</ele>
        <time>2019-03-17T11:56:22Z</time>
      </trkpt>
      <trkpt lat="43.71752" lon="7.34124">
        <ele>200.4</ele>
        <time>2019-03-17T11:56:23Z</time>
      </trkpt>
      <trkpt lat="43.71755" lon="7.34148">
        <ele>193.1</ele>
        <time>2019-03-17T11:57:01Z</time>
      </trkpt>
      <trkpt lat="43.71754" lon="7.3416">
        <ele>191.1</ele>
        <time>2019-03-17T11:57:15Z</time>
      </trkpt>
      <trkpt lat="43.71754" lon="7.34165">
        <ele>190.6</ele>
        <time>2019-03-17T11:57:18Z</time>
      </trkpt>
      <trkpt lat="43.7176" lon="7.3419">
        <ele>187</ele>
        <time>2019-03-17T11:58:01Z</time>
      </trkpt>
      <trkpt lat="43.7176" lon="7.34214">
        <ele>182.3</ele>
        <time>2019-03-17T11:58:41Z</time>
      </trkpt>
      <trkpt lat="43.7176" lon="7.34239">
        <ele>180.1</ele>
        <time>2019-03-17T11:59:16Z</time>
      </trkpt>
      <trkpt lat="43.71766" lon="7.34263">
        <ele>178.6</ele>
        <time>2019-03-17T11:59:49Z</time>
      </trkpt>
      <trkpt lat="43.71774" lon="7.34287">
        <ele>178.7</ele>
        <time>2019-03-17T12:00:24Z</time>
      </trkpt>
      <trkpt lat="43.71775" lon="7.34304">
        <ele>177.6</ele>
        <time>2019-03-17T12:01:00Z</time>
      </trkpt>
      <trkpt lat="43.71774" lon="7.34306">
        <ele>177.4</ele>
        <time>2019-03-17T12:01:02Z</time>
      </trkpt>
      <trkpt lat="43.71771" lon="7.34329">
        <ele>172.6</ele>
        <time>2019-03-17T12:01:39Z</time>
      </trkpt>
      <trkpt lat="43.71772" lon="7.34352">
        <ele>168.4</ele>
        <time>2019-03-17T12:02:22Z</time>
      </trkpt>
      <trkpt lat="43.7177" lon="7.3438">
        <ele>164.8</ele>
        <time>2019-03-17T12:02:53Z</time>
      </trkpt>
      <trkpt lat="43.71778" lon="7.34405">
        <ele>159.7</ele>
        <time>2019-03-17T12:03:27Z</time>
      </trkpt>
      <trkpt lat="43.71794" lon="7.34419">
        <ele>153.6</ele>
        <time>2019-03-17T12:04:13Z</time>
      </trkpt>
      <trkpt lat="43.71798" lon="7.3444">
        <ele>150.8</ele>
        <time>2019-03-17T12:05:01Z</time>
      </trkpt>
      <trkpt lat="43.71801" lon="7.34428">
        <ele>149.4</ele>
        <time>2019-03-17T12:05:40Z</time>
      </trkpt>
      <trkpt lat="43.71809" lon="7.34438">
        <ele>147.8</ele>
        <time>2019-03-17T12:06:33Z</time>
      </trkpt>
      <trkpt lat="43.7181" lon="7.34447">
        <ele>146.4</ele>
        <time>2019-03-17T12:07:08Z</time>
      </trkpt>
      <trkpt lat="43.7181" lon="7.34449">
        <ele>146.2</ele>
        <time>2019-03-17T12:07:11Z</time>
      </trkpt>
      <trkpt lat="43.71809" lon="7.34451">
        <ele>145.9</ele>
        <time>2019-03-17T12:07:13Z</time>
      </trkpt>
      <trkpt lat="43.7181" lon="7.34452">
        <ele>145.6</ele>
        <time>2019-03-17T12:07:15Z</time>
      </trkpt>
      <trkpt lat="43.7181" lon="7.34454">
        <ele>145.3</ele>
        <time>2019-03-17T12:07:17Z</time>
      </trkpt>
      <trkpt lat="43.7181" lon="7.34458">
        <ele>144.7</ele>
        <time>2019-03-17T12:07:22Z</time>
      </trkpt>
      <trkpt lat="43.71809" lon="7.34461">
        <ele>144.3</ele>
        <time>2019-03-17T12:07:25Z</time>
      </trkpt>
      <trkpt lat="43.71811" lon="7.34458">
        <ele>143.6</ele>
        <time>2019-03-17T12:07:31Z</time>
      </trkpt>
      <trkpt lat="43.71811" lon="7.3446">
        <ele>143.3</ele>
        <time>2019-03-17T12:07:34Z</time>
      </trkpt>
      <trkpt lat="43.71811" lon="7.3446">
        <ele>143.1</ele>
        <time>2019-03-17T12:07:37Z</time>
      </trkpt>
      <trkpt lat="43.71811" lon="7.34464">
        <ele>142.5</ele>
        <time>2019-03-17T12:07:43Z</time>
      </trkpt>
      <trkpt lat="43.71809" lon="7.34478">
        <ele>139.6</ele>
        <time>2019-03-17T12:08:11Z</time>
      </trkpt>
      <trkpt lat="43.71809" lon="7.34479">
        <ele>139.4</ele>
        <time>2019-03-17T12:08:13Z</time>
      </trkpt>
      <trkpt lat="43.71808" lon="7.34479">
        <ele>139.2</ele>
        <time>2019-03-17T12:08:15Z</time>
      </trkpt>
      <trkpt lat="43.71808" lon="7.34479">
        <ele>139</ele>
        <time>2019-03-17T12:08:18Z</time>
      </trkpt>
      <trkpt lat="43.71809" lon="7.34491">
        <ele>137</ele>
        <time>2019-03-17T12:08:31Z</time>
      </trkpt>
      <trkpt lat="43.71808" lon="7.34499">
        <ele>135.5</ele>
        <time>2019-03-17T12:08:38Z</time>
      </trkpt>
      <trkpt lat="43.71809" lon="7.34511">
        <ele>133.4</ele>
        <time>2019-03-17T12:08:49Z</time>
      </trkpt>
      <trkpt lat="43.71809" lon="7.34513">
        <ele>133</ele>
        <time>2019-03-17T12:08:51Z</time>
      </trkpt>
      <trkpt lat="43.71809" lon="7.34516">
        <ele>132.3</ele>
        <time>2019-03-17T12:08:55Z</time>
      </trkpt>
      <trkpt lat="43.71809" lon="7.34517">
        <ele>132.1</ele>
        <time>2019-03-17T12:08:57Z</time>
      </trkpt>
      <trkpt lat="43.7181" lon="7.3452">
        <ele>131.4</ele>
        <time>2019-03-17T12:09:01Z</time>
      </trkpt>
      <trkpt lat="43.7181" lon="7.34521">
        <ele>131.1</ele>
        <time>2019-03-17T12:09:04Z</time>
      </trkpt>
      <trkpt lat="43.7181" lon="7.34523">
        <ele>130.6</ele>
        <time>2019-03-17T12:09:08Z</time>
      </trkpt>
      <trkpt lat="43.71811" lon="7.34529">
        <ele>129.3</ele>
        <time>2019-03-17T12:09:14Z</time>
      </trkpt>
      <trkpt lat="43.71811" lon="7.34544">
        <ele>125.3</ele>
        <time>2019-03-17T12:09:30Z</time>
      </trkpt>
      <trkpt lat="43.71809" lon="7.34548">
        <ele>124</ele>
        <time>2019-03-17T12:09:33Z</time>
      </trkpt>
      <trkpt lat="43.71809" lon="7.34551">
        <ele>123.1</ele>
        <time>2019-03-17T12:09:35Z</time>
      </trkpt>
      <trkpt lat="43.71808" lon="7.34555">
        <ele>121.9</ele>
        <time>2019-03-17T12:09:41Z</time>
      </trkpt>
      <trkpt lat="43.71806" lon="7.34571">
        <ele>117.2</ele>
        <time>2019-03-17T12:09:59Z</time>
      </trkpt>
      <trkpt lat="43.71804" lon="7.34581">
        <ele>114.3</ele>
        <time>2019-03-17T12:10:07Z</time>
      </trkpt>
      <trkpt lat="43.71804" lon="7.34585">
        <ele>113.3</ele>
        <time>2019-03-17T12:10:12Z</time>
      </trkpt>
      <trkpt lat="43.71807" lon="7.34587">
        <ele>112</ele>
        <time>2019-03-17T12:10:19Z</time>
      </trkpt>
      <trkpt lat="43.71807" lon="7.34588">
        <ele>111.9</ele>
        <time>2019-03-17T12:10:21Z</time>
      </trkpt>
      <trkpt lat="43.71807" lon="7.34588">
        <ele>111.7</ele>
        <time>2019-03-17T12:10:24Z</time>
      </trkpt>
      <trkpt lat="43.71811" lon="7.34584">
        <ele>110</ele>
        <time>2019-03-17T12:10:31Z</time>
      </trkpt>
      <trkpt lat="43.7181" lon="7.34585">
        <ele>109.3</ele>
        <time>2019-03-17T12:10:34Z</time>
      </trkpt>
      <trkpt lat="43.71809" lon="7.34588">
        <ele>108.5</ele>
        <time>2019-03-17T12:10:37Z</time>
      </trkpt>
      <trkpt lat="43.71807" lon="7.3459">
        <ele>107.7</ele>
        <time>2019-03-17T12:10:41Z</time>
      </trkpt>
      <trkpt lat="43.71807" lon="7.34608">
        <ele>103.7</ele>
        <time>2019-03-17T12:11:20Z</time>
      </trkpt>
      <trkpt lat="43.71805" lon="7.34616">
        <ele>101.6</ele>
        <time>2019-03-17T12:11:29Z</time>
      </trkpt>
      <trkpt lat="43.71805" lon="7.34619">
        <ele>100.9</ele>
        <time>2019-03-17T12:11:33Z</time>
      </trkpt>
      <trkpt lat="43.71805" lon="7.3462">
        <ele>100.5</ele>
        <time>2019-03-17T12:11:35Z</time>
      </trkpt>
      <trkpt lat="43.71803" lon="7.3463">
        <ele>98.2</ele>
        <time>2019-03-17T12:11:44Z</time>
      </trkpt>
      <trkpt lat="43.71802" lon="7.34634">
        <ele>97.1</ele>
        <time>2019-03-17T12:11:48Z</time>
      </trkpt>
      <trkpt lat="43.71803" lon="7.34636">
        <ele>96.5</ele>
        <time>2019-03-17T12:11:50Z</time>
      </trkpt>
      <trkpt lat="43.71807" lon="7.3465">
        <ele>90.6</ele>
        <time>2019-03-17T12:12:29Z</time>
      </trkpt>
      <trkpt lat="43.71814" lon="7.34646">
        <ele>88.4</ele>
        <time>2019-03-17T12:13:18Z</time>
      </trkpt>
      <trkpt lat="43.71819" lon="7.34629">
        <ele>85.1</ele>
        <time>2019-03-17T12:13:55Z</time>
      </trkpt>
      <trkpt lat="43.71825" lon="7.34619">
        <ele>83.1</ele>
        <time>2019-03-17T12:14:22Z</time>
      </trkpt>
      <trkpt lat="43.71827" lon="7.34612">
        <ele>82</ele>
        <time>2019-03-17T12:14:29Z</time>
      </trkpt>
      <trkpt lat="43.71833" lon="7.34589">
        <ele>80.8</ele>
        <time>2019-03-17T12:14:43Z</time>
      </trkpt>
      <trkpt lat="43.71834" lon="7.34587">
        <ele>80.8</ele>
        <time>2019-03-17T12:14:46Z</time>
      </trkpt>
      <trkpt lat="43.71835" lon="7.34587">
        <ele>80.7</ele>
        <time>2019-03-17T12:14:49Z</time>
      </trkpt>
      <trkpt lat="43.71834" lon="7.34587">
        <ele>80.7</ele>
        <time>2019-03-17T12:14:52Z</time>
      </trkpt>
      <trkpt lat="43.71836" lon="7.34586">
        <ele>80.7</ele>
        <time>2019-03-17T12:15:01Z</time>
      </trkpt>
      <trkpt lat="43.71837" lon="7.34582">
        <ele>80.6</ele>
        <time>2019-03-17T12:15:10Z</time>
      </trkpt>
      <trkpt lat="43.71838" lon="7.3458">
        <ele>80.6</ele>
        <time>2019-03-17T12:15:12Z</time>
      </trkpt>
      <trkpt lat="43.71839" lon="7.3458">
        <ele>80.5</ele>
        <time>2019-03-17T12:15:20Z</time>
      </trkpt>
      <trkpt lat="43.71838" lon="7.3458">
        <ele>80.5</ele>
        <time>2019-03-17T12:15:30Z</time>
      </trkpt>
      <trkpt lat="43.71838" lon="7.34579">
        <ele>80.5</ele>
        <time>2019-03-17T12:15:32Z</time>
      </trkpt>
      <trkpt lat="43.71838" lon="7.34579">
        <ele>80.5</ele>
        <time>2019-03-17T12:15:34Z</time>
      </trkpt>
      <trkpt lat="43.7184" lon="7.34579">
        <ele>80.4</ele>
        <time>2019-03-17T12:15:36Z</time>
      </trkpt>
      <trkpt lat="43.71843" lon="7.3458">
        <ele>80.4</ele>
        <time>2019-03-17T12:15:40Z</time>
      </trkpt>
      <trkpt lat="43.71843" lon="7.34581">
        <ele>80.4</ele>
        <time>2019-03-17T12:15:43Z</time>
      </trkpt>
      <trkpt lat="43.71845" lon="7.34584">
        <ele>80.4</ele>
        <time>2019-03-17T12:15:48Z</time>
      </trkpt>
      <trkpt lat="43.71846" lon="7.34584">
        <ele>80.4</ele>
        <time>2019-03-17T12:15:50Z</time>
      </trkpt>
      <trkpt lat="43.71851" lon="7.34582">
        <ele>80.6</ele>
        <time>2019-03-17T12:15:56Z</time>
      </trkpt>
      <trkpt lat="43.71851" lon="7.34581">
        <ele>80.6</ele>
        <time>2019-03-17T12:15:58Z</time>
      </trkpt>
      <trkpt lat="43.71857" lon="7.34592">
        <ele>81.2</ele>
        <time>2019-03-17T12:16:16Z</time>
      </trkpt>
      <trkpt lat="43.71859" lon="7.34598">
        <ele>81.4</ele>
        <time>2019-03-17T12:16:21Z</time>
      </trkpt>
      <trkpt lat="43.71861" lon="7.34606">
        <ele>81.8</ele>
        <time>2019-03-17T12:16:29Z</time>
      </trkpt>
      <trkpt lat="43.71861" lon="7.34609">
        <ele>81.9</ele>
        <time>2019-03-17T12:16:31Z</time>
      </trkpt>
      <trkpt lat="43.71865" lon="7.34614">
        <ele>82.1</ele>
        <time>2019-03-17T12:16:37Z</time>
      </trkpt>
      <trkpt lat="43.71866" lon="7.34616">
        <ele>82.2</ele>
        <time>2019-03-17T12:16:40Z</time>
      </trkpt>
      <trkpt lat="43.71866" lon="7.34619">
        <ele>82.3</ele>
        <time>2019-03-17T12:16:42Z</time>
      </trkpt>
      <trkpt lat="43.71869" lon="7.34632">
        <ele>82.7</ele>
        <time>2019-03-17T12:16:56Z</time>
      </trkpt>
      <trkpt lat="43.71869" lon="7.34633">
        <ele>82.7</ele>
        <time>2019-03-17T12:16:58Z</time>
      </trkpt>
      <trkpt lat="43.71872" lon="7.34637">
        <ele>82.9</ele>
        <time>2019-03-17T12:17:02Z</time>
      </trkpt>
      <trkpt lat="43.71873" lon="7.34637">
        <ele>83</ele>
        <time>2019-03-17T12:17:06Z</time>
      </trkpt>
      <trkpt lat="43.71873" lon="7.34636">
        <ele>83</ele>
        <time>2019-03-17T12:17:09Z</time>
      </trkpt>
      <trkpt lat="43.71874" lon="7.34637">
        <ele>83</ele>
        <time>2019-03-17T12:17:13Z</time>
      </trkpt>
      <trkpt lat="43.7188" lon="7.34656">
        <ele>83.3</ele>
        <time>2019-03-17T12:17:52Z</time>
      </trkpt>
      <trkpt lat="43.71877" lon="7.34669">
        <ele>83.4</ele>
        <time>2019-03-17T12:18:06Z</time>
      </trkpt>
      <trkpt lat="43.71878" lon="7.34675">
        <ele>83.4</ele>
        <time>2019-03-17T12:18:12Z</time>
      </trkpt>
      <trkpt lat="43.71872" lon="7.34698">
        <ele>83.3</ele>
        <time>2019-03-17T12:18:32Z</time>
      </trkpt>
      <trkpt lat="43.71864" lon="7.34706">
        <ele>83.4</ele>
        <time>2019-03-17T12:18:42Z</time>
      </trkpt>
      <trkpt lat="43.71864" lon="7.34713">
        <ele>83.5</ele>
        <time>2019-03-17T12:18:46Z</time>
      </trkpt>
      <trkpt lat="43.71875" lon="7.34734">
        <ele>83.7</ele>
        <time>2019-03-17T12:19:12Z</time>
      </trkpt>
      <trkpt lat="43.71885" lon="7.34742">
        <ele>83.3</ele>
        <time>2019-03-17T12:19:26Z</time>
      </trkpt>
      <trkpt lat="43.71895" lon="7.34763">
        <ele>81.6</ele>
        <time>2019-03-17T12:19:51Z</time>
      </trkpt>
      <trkpt lat="43.71909" lon="7.34782">
        <ele>79.6</ele>
        <time>2019-03-17T12:20:17Z</time>
      </trkpt>
      <trkpt lat="43.71924" lon="7.34798">
        <ele>78.3</ele>
        <time>2019-03-17T12:20:38Z</time>
      </trkpt>
      <trkpt lat="43.71936" lon="7.34817">
        <ele>76.7</ele>
        <time>2019-03-17T12:21:00Z</time>
      </trkpt>
      <trkpt lat="43.71943" lon="7.34839">
        <ele>73.7</ele>
        <time>2019-03-17T12:21:29Z</time>
      </trkpt>
      <trkpt lat="43.71953" lon="7.34847">
        <ele>72.4</ele>
        <time>2019-03-17T12:23:04Z</time>
      </trkpt>
      <trkpt lat="43.71968" lon="7.34862">
        <ele>72.6</ele>
        <time>2019-03-17T12:23:29Z</time>
      </trkpt>
      <trkpt lat="43.71982" lon="7.34875">
        <ele>73.8</ele>
        <time>2019-03-17T12:23:50Z</time>
      </trkpt>
      <trkpt lat="43.71985" lon="7.34874">
        <ele>74.1</ele>
        <time>2019-03-17T12:23:52Z</time>
      </trkpt>
      <trkpt lat="43.71988" lon="7.34875">
        <ele>74.4</ele>
        <time>2019-03-17T12:23:55Z</time>
      </trkpt>
      <trkpt lat="43.72004" lon="7.34878">
        <ele>75.5</ele>
        <time>2019-03-17T12:24:52Z</time>
      </trkpt>
      <trkpt lat="43.72011" lon="7.34894">
        <ele>75.8</ele>
        <time>2019-03-17T12:25:21Z</time>
      </trkpt>
      <trkpt lat="43.72008" lon="7.34918">
        <ele>76.1</ele>
        <time>2019-03-17T12:25:34Z</time>
      </trkpt>
      <trkpt lat="43.72018" lon="7.3494">
        <ele>75.3</ele>
        <time>2019-03-17T12:25:51Z</time>
      </trkpt>
      <trkpt lat="43.7203" lon="7.34959">
        <ele>74.1</ele>
        <time>2019-03-17T12:26:11Z</time>
      </trkpt>
      <trkpt lat="43.72033" lon="7.34968">
        <ele>73.9</ele>
        <time>2019-03-17T12:26:25Z</time>
      </trkpt>
      <trkpt lat="43.72035" lon="7.34969">
        <ele>73.9</ele>
        <time>2019-03-17T12:26:27Z</time>
      </trkpt>
      <trkpt lat="43.72045" lon="7.3499">
        <ele>74.4</ele>
        <time>2019-03-17T12:26:46Z</time>
      </trkpt>
      <trkpt lat="43.72057" lon="7.35009">
        <ele>77.5</ele>
        <time>2019-03-17T12:27:05Z</time>
      </trkpt>
      <trkpt lat="43.72068" lon="7.35029">
        <ele>82.7</ele>
        <time>2019-03-17T12:27:30Z</time>
      </trkpt>
      <trkpt lat="43.72084" lon="7.3504">
        <ele>85</ele>
        <time>2019-03-17T12:27:46Z</time>
      </trkpt>
      <trkpt lat="43.72093" lon="7.35055">
        <ele>83.3</ele>
        <time>2019-03-17T12:28:01Z</time>
      </trkpt>
      <trkpt lat="43.72095" lon="7.3506">
        <ele>82.7</ele>
        <time>2019-03-17T12:28:05Z</time>
      </trkpt>
      <trkpt lat="43.72103" lon="7.35083">
        <ele>80</ele>
        <time>2019-03-17T12:28:23Z</time>
      </trkpt>
      <trkpt lat="43.72107" lon="7.35108">
        <ele>77.3</ele>
        <time>2019-03-17T12:28:41Z</time>
      </trkpt>
      <trkpt lat="43.72117" lon="7.3513">
        <ele>75.1</ele>
        <time>2019-03-17T12:28:59Z</time>
      </trkpt>
      <trkpt lat="43.72121" lon="7.35156">
        <ele>71.8</ele>
        <time>2019-03-17T12:29:18Z</time>
      </trkpt>
      <trkpt lat="43.72107" lon="7.35168">
        <ele>67</ele>
        <time>2019-03-17T12:29:52Z</time>
      </trkpt>
      <trkpt lat="43.72106" lon="7.35191">
        <ele>61.2</ele>
        <time>2019-03-17T12:30:11Z</time>
      </trkpt>
      <trkpt lat="43.72113" lon="7.35214">
        <ele>59.7</ele>
        <time>2019-03-17T12:30:26Z</time>
      </trkpt>
      <trkpt lat="43.72117" lon="7.3524">
        <ele>59.2</ele>
        <time>2019-03-17T12:30:42Z</time>
      </trkpt>
      <trkpt lat="43.72121" lon="7.35265">
        <ele>59.6</ele>
        <time>2019-03-17T12:30:58Z</time>
      </trkpt>
      <trkpt lat="43.7212" lon="7.35265">
        <ele>59.6</ele>
        <time>2019-03-17T12:30:59Z</time>
      </trkpt>
      <trkpt lat="43.72134" lon="7.35273">
        <ele>60.1</ele>
        <time>2019-03-17T12:31:39Z</time>
      </trkpt>
      <trkpt lat="43.72139" lon="7.35276">
        <ele>60.3</ele>
        <time>2019-03-17T12:31:49Z</time>
      </trkpt>
      <trkpt lat="43.72145" lon="7.35297">
        <ele>60.3</ele>
        <time>2019-03-17T12:32:19Z</time>
      </trkpt>
      <trkpt lat="43.72152" lon="7.35322">
        <ele>59.7</ele>
        <time>2019-03-17T12:32:43Z</time>
      </trkpt>
      <trkpt lat="43.72154" lon="7.35324">
        <ele>59.5</ele>
        <time>2019-03-17T12:32:48Z</time>
      </trkpt>
      <trkpt lat="43.72164" lon="7.35345">
        <ele>58.2</ele>
        <time>2019-03-17T12:33:35Z</time>
      </trkpt>
      <trkpt lat="43.72174" lon="7.35367">
        <ele>56.8</ele>
        <time>2019-03-17T12:33:56Z</time>
      </trkpt>
      <trkpt lat="43.72181" lon="7.35387">
        <ele>55.8</ele>
        <time>2019-03-17T12:34:17Z</time>
      </trkpt>
      <trkpt lat="43.72182" lon="7.35386">
        <ele>55.7</ele>
        <time>2019-03-17T12:34:19Z</time>
      </trkpt>
      <trkpt lat="43.72196" lon="7.35399">
        <ele>54.6</ele>
        <time>2019-03-17T12:34:51Z</time>
      </trkpt>
      <trkpt lat="43.72198" lon="7.35425">
        <ele>53.5</ele>
        <time>2019-03-17T12:35:08Z</time>
      </trkpt>
      <trkpt lat="43.72199" lon="7.35429">
        <ele>53.3</ele>
        <time>2019-03-17T12:35:16Z</time>
      </trkpt>
      <trkpt lat="43.72206" lon="7.35453">
        <ele>52.3</ele>
        <time>2019-03-17T12:35:40Z</time>
      </trkpt>
      <trkpt lat="43.72217" lon="7.35473">
        <ele>50.9</ele>
        <time>2019-03-17T12:35:58Z</time>
      </trkpt>
      <trkpt lat="43.72225" lon="7.35482">
        <ele>50.8</ele>
        <time>2019-03-17T12:36:11Z</time>
      </trkpt>
      <trkpt lat="43.72232" lon="7.35499">
        <ele>51.4</ele>
        <time>2019-03-17T12:36:49Z</time>
      </trkpt>
      <trkpt lat="43.72242" lon="7.35506">
        <ele>51.8</ele>
        <time>2019-03-17T12:37:11Z</time>
      </trkpt>
      <trkpt lat="43.72245" lon="7.35508">
        <ele>51.9</ele>
        <time>2019-03-17T12:37:14Z</time>
      </trkpt>
      <trkpt lat="43.72249" lon="7.35515">
        <ele>52.1</ele>
        <time>2019-03-17T12:37:23Z</time>
      </trkpt>
      <trkpt lat="43.72246" lon="7.35521">
        <ele>50.6</ele>
        <time>2019-03-17T12:37:30Z</time>
      </trkpt>
      <trkpt lat="43.72245" lon="7.35523">
        <ele>50</ele>
        <time>2019-03-17T12:37:33Z</time>
      </trkpt>
      <trkpt lat="43.72244" lon="7.35526">
        <ele>49.3</ele>
        <time>2019-03-17T12:37:36Z</time>
      </trkpt>
      <trkpt lat="43.72242" lon="7.35528">
        <ele>48.7</ele>
        <time>2019-03-17T12:37:43Z</time>
      </trkpt>
      <trkpt lat="43.72244" lon="7.35529">
        <ele>48.2</ele>
        <time>2019-03-17T12:37:49Z</time>
      </trkpt>
      <trkpt lat="43.72243" lon="7.3553">
        <ele>47.9</ele>
        <time>2019-03-17T12:37:51Z</time>
      </trkpt>
      <trkpt lat="43.72242" lon="7.35533">
        <ele>47.3</ele>
        <time>2019-03-17T12:37:53Z</time>
      </trkpt>
      <trkpt lat="43.72241" lon="7.35534">
        <ele>47</ele>
        <time>2019-03-17T12:37:56Z</time>
      </trkpt>
      <trkpt lat="43.7224" lon="7.35535">
        <ele>46.1</ele>
        <time>2019-03-17T12:37:59Z</time>
      </trkpt>
      <trkpt lat="43.72239" lon="7.35536">
        <ele>45.8</ele>
        <time>2019-03-17T12:38:01Z</time>
      </trkpt>
      <trkpt lat="43.72237" lon="7.3554">
        <ele>45.2</ele>
        <time>2019-03-17T12:38:04Z</time>
      </trkpt>
      <trkpt lat="43.72231" lon="7.3555">
        <ele>43.3</ele>
        <time>2019-03-17T12:38:12Z</time>
      </trkpt>
      <trkpt lat="43.72229" lon="7.35553">
        <ele>42.8</ele>
        <time>2019-03-17T12:38:14Z</time>
      </trkpt>
      <trkpt lat="43.72225" lon="7.3556">
        <ele>41.6</ele>
        <time>2019-03-17T12:38:17Z</time>
      </trkpt>
      <trkpt lat="43.7222" lon="7.35574">
        <ele>39.4</ele>
        <time>2019-03-17T12:38:24Z</time>
      </trkpt>
      <trkpt lat="43.72221" lon="7.35577">
        <ele>39.1</ele>
        <time>2019-03-17T12:38:27Z</time>
      </trkpt>
      <trkpt lat="43.72219" lon="7.35583">
        <ele>38.4</ele>
        <time>2019-03-17T12:38:30Z</time>
      </trkpt>
      <trkpt lat="43.72212" lon="7.35599">
        <ele>37.3</ele>
        <time>2019-03-17T12:38:41Z</time>
      </trkpt>
      <trkpt lat="43.72211" lon="7.35604">
        <ele>36.9</ele>
        <time>2019-03-17T12:38:43Z</time>
      </trkpt>
      <trkpt lat="43.72228" lon="7.35615">
        <ele>35.3</ele>
        <time>2019-03-17T12:39:02Z</time>
      </trkpt>
      <trkpt lat="43.72235" lon="7.35617">
        <ele>34.4</ele>
        <time>2019-03-17T12:39:07Z</time>
      </trkpt>
      <trkpt lat="43.72233" lon="7.35617">
        <ele>34.2</ele>
        <time>2019-03-17T12:39:10Z</time>
      </trkpt>
      <trkpt lat="43.72227" lon="7.35627">
        <ele>32.7</ele>
        <time>2019-03-17T12:39:14Z</time>
      </trkpt>
      <trkpt lat="43.72224" lon="7.35636">
        <ele>29.7</ele>
        <time>2019-03-17T12:39:18Z</time>
      </trkpt>
      <trkpt lat="43.72211" lon="7.35637">
        <ele>29.7</ele>
        <time>2019-03-17T12:39:33Z</time>
      </trkpt>
      <trkpt lat="43.722" lon="7.35638">
        <ele>22.5</ele>
        <time>2019-03-17T12:39:46Z</time>
      </trkpt>
      <trkpt lat="43.72199" lon="7.3564">
        <ele>22.3</ele>
        <time>2019-03-17T12:39:50Z</time>
      </trkpt>
      <trkpt lat="43.72197" lon="7.35649">
        <ele>21.7</ele>
        <time>2019-03-17T12:40:22Z</time>
      </trkpt>
      <trkpt lat="43.72197" lon="7.35658">
        <ele>21.7</ele>
        <time>2019-03-17T12:40:28Z</time>
      </trkpt>
      <trkpt lat="43.72197" lon="7.35672">
        <ele>20.9</ele>
        <time>2019-03-17T12:40:40Z</time>
      </trkpt>
      <trkpt lat="43.72193" lon="7.35683">
        <ele>20.6</ele>
        <time>2019-03-17T12:41:31Z</time>
      </trkpt>
      <trkpt lat="43.72192" lon="7.35691">
        <ele>20.4</ele>
        <time>2019-03-17T12:41:35Z</time>
      </trkpt>
      <trkpt lat="43.72204" lon="7.35712">
        <ele>19.8</ele>
        <time>2019-03-17T12:41:56Z</time>
      </trkpt>
      <trkpt lat="43.7221" lon="7.35735">
        <ele>19.1</ele>
        <time>2019-03-17T12:42:18Z</time>
      </trkpt>
      <trkpt lat="43.72219" lon="7.35757">
        <ele>18.5</ele>
        <time>2019-03-17T12:42:41Z</time>
      </trkpt>
      <trkpt lat="43.72226" lon="7.3578">
        <ele>17.8</ele>
        <time>2019-03-17T12:43:03Z</time>
      </trkpt>
      <trkpt lat="43.72226" lon="7.3578">
        <ele>17.8</ele>
        <time>2019-03-17T12:43:04Z</time>
      </trkpt>
      <trkpt lat="43.72216" lon="7.35791">
        <ele>15.4</ele>
        <time>2019-03-17T12:43:26Z</time>
      </trkpt>
      <trkpt lat="43.7221" lon="7.35792">
        <ele>13.4</ele>
        <time>2019-03-17T12:43:32Z</time>
      </trkpt>
      <trkpt lat="43.72198" lon="7.35792">
        <ele>6.7</ele>
        <time>2019-03-17T12:43:43Z</time>
      </trkpt>
      <trkpt lat="43.72182" lon="7.35795">
        <ele>-1</ele>
        <time>2019-03-17T12:43:57Z</time>
      </trkpt>
      <trkpt lat="43.72169" lon="7.35804">
        <ele>-2.5</ele>
        <time>2019-03-17T12:44:13Z</time>
      </trkpt>
      <trkpt lat="43.72174" lon="7.35802">
        <ele>-2</ele>
        <time>2019-03-17T12:45:33Z</time>
      </trkpt>
      <trkpt lat="43.72175" lon="7.35802">
        <ele>-2</ele>
        <time>2019-03-17T12:45:34Z</time>
      </trkpt>
      <trkpt lat="43.7218" lon="7.35797">
        <ele>-1.6</ele>
        <time>2019-03-17T12:45:43Z</time>
      </trkpt>
      <trkpt lat="43.72179" lon="7.35792">
        <ele>-1.8</ele>
        <time>2019-03-17T12:45:47Z</time>
      </trkpt>
      <trkpt lat="43.72177" lon="7.35773">
        <ele>-3.8</ele>
        <time>2019-03-17T12:46:23Z</time>
      </trkpt>
      <trkpt lat="43.72171" lon="7.3575">
        <ele>2</ele>
        <time>2019-03-17T12:46:42Z</time>
      </trkpt>
      <trkpt lat="43.72168" lon="7.35745">
        <ele>2.7</ele>
        <time>2019-03-17T12:46:47Z</time>
      </trkpt>
      <trkpt lat="43.72168" lon="7.35742">
        <ele>4.1</ele>
        <time>2019-03-17T12:46:50Z</time>
      </trkpt>
      <trkpt lat="43.72166" lon="7.35734">
        <ele>4.6</ele>
        <time>2019-03-17T12:46:58Z</time>
      </trkpt>
      <trkpt lat="43.72165" lon="7.35732">
        <ele>5.2</ele>
        <time>2019-03-17T12:47:01Z</time>
      </trkpt>
      <trkpt lat="43.72156" lon="7.35709">
        <ele>-0.1</ele>
        <time>2019-03-17T12:47:25Z</time>
      </trkpt>
      <trkpt lat="43.72151" lon="7.35686">
        <ele>-3</ele>
        <time>2019-03-17T12:47:47Z</time>
      </trkpt>
      <trkpt lat="43.72143" lon="7.35662">
        <ele>4.2</ele>
        <time>2019-03-17T12:48:08Z</time>
      </trkpt>
      <trkpt lat="43.72132" lon="7.35642">
        <ele>0.2</ele>
        <time>2019-03-17T12:48:28Z</time>
      </trkpt>
      <trkpt lat="43.72123" lon="7.3562">
        <ele>0.6</ele>
        <time>2019-03-17T12:48:46Z</time>
      </trkpt>
      <trkpt lat="43.7212" lon="7.35607">
        <ele>5.3</ele>
        <time>2019-03-17T12:48:57Z</time>
      </trkpt>
      <trkpt lat="43.72113" lon="7.35588">
        <ele>5.9</ele>
        <time>2019-03-17T12:49:15Z</time>
      </trkpt>
      <trkpt lat="43.72109" lon="7.35578">
        <ele>3.7</ele>
        <time>2019-03-17T12:49:24Z</time>
      </trkpt>
      <trkpt lat="43.72107" lon="7.35574">
        <ele>2</ele>
        <time>2019-03-17T12:49:28Z</time>
      </trkpt>
      <trkpt lat="43.72104" lon="7.35569">
        <ele>1</ele>
        <time>2019-03-17T12:49:33Z</time>
      </trkpt>
      <trkpt lat="43.72101" lon="7.35566">
        <ele>0.8</ele>
        <time>2019-03-17T12:49:37Z</time>
      </trkpt>
      <trkpt lat="43.7209" lon="7.35548">
        <ele>5.8</ele>
        <time>2019-03-17T12:50:00Z</time>
      </trkpt>
      <trkpt lat="43.72084" lon="7.35537">
        <ele>5.4</ele>
        <time>2019-03-17T12:50:17Z</time>
      </trkpt>
      <trkpt lat="43.72074" lon="7.35519">
        <ele>7.5</ele>
        <time>2019-03-17T12:50:56Z</time>
      </trkpt>
      <trkpt lat="43.7207" lon="7.3551">
        <ele>9.1</ele>
        <time>2019-03-17T12:52:05Z</time>
      </trkpt>
      <trkpt lat="43.72066" lon="7.35505">
        <ele>8.8</ele>
        <time>2019-03-17T12:52:13Z</time>
      </trkpt>
      <trkpt lat="43.72064" lon="7.355">
        <ele>7.9</ele>
        <time>2019-03-17T12:52:19Z</time>
      </trkpt>
      <trkpt lat="43.7206" lon="7.35495">
        <ele>6.3</ele>
        <time>2019-03-17T12:52:26Z</time>
      </trkpt>
      <trkpt lat="43.72055" lon="7.35489">
        <ele>3.3</ele>
        <time>2019-03-17T12:52:35Z</time>
      </trkpt>
      <trkpt lat="43.7205" lon="7.35483">
        <ele>3.4</ele>
        <time>2019-03-17T12:52:42Z</time>
      </trkpt>
      <trkpt lat="43.72038" lon="7.35466">
        <ele>4.1</ele>
        <time>2019-03-17T12:53:15Z</time>
      </trkpt>
      <trkpt lat="43.72033" lon="7.35456">
        <ele>5.5</ele>
        <time>2019-03-17T12:53:33Z</time>
      </trkpt>
      <trkpt lat="43.72022" lon="7.35439">
        <ele>-0.2</ele>
        <time>2019-03-17T12:54:02Z</time>
      </trkpt>
      <trkpt lat="43.72017" lon="7.35427">
        <ele>0.9</ele>
        <time>2019-03-17T12:55:20Z</time>
      </trkpt>
      <trkpt lat="43.72006" lon="7.35417">
        <ele>0.8</ele>
        <time>2019-03-17T12:56:16Z</time>
      </trkpt>
      <trkpt lat="43.71996" lon="7.35398">
        <ele>2.2</ele>
        <time>2019-03-17T12:57:14Z</time>
      </trkpt>
      <trkpt lat="43.71995" lon="7.35397">
        <ele>3.3</ele>
        <time>2019-03-17T12:57:15Z</time>
      </trkpt>
      <trkpt lat="43.71993" lon="7.3539">
        <ele>3.6</ele>
        <time>2019-03-17T12:57:22Z</time>
      </trkpt>
      <trkpt lat="43.71991" lon="7.35388">
        <ele>4.9</ele>
        <time>2019-03-17T12:57:25Z</time>
      </trkpt>
      <trkpt lat="43.71989" lon="7.35386">
        <ele>4.1</ele>
        <time>2019-03-17T12:57:28Z</time>
      </trkpt>
      <trkpt lat="43.71981" lon="7.35372">
        <ele>5.4</ele>
        <time>2019-03-17T12:57:43Z</time>
      </trkpt>
      <trkpt lat="43.7198" lon="7.3537">
        <ele>6.1</ele>
        <time>2019-03-17T12:57:45Z</time>
      </trkpt>
      <trkpt lat="43.71973" lon="7.35361">
        <ele>3.6</ele>
        <time>2019-03-17T12:58:06Z</time>
      </trkpt>
      <trkpt lat="43.71963" lon="7.35346">
        <ele>0.3</ele>
        <time>2019-03-17T12:58:24Z</time>
      </trkpt>
      <trkpt lat="43.7196" lon="7.3534">
        <ele>0.8</ele>
        <time>2019-03-17T12:58:29Z</time>
      </trkpt>
      <trkpt lat="43.71951" lon="7.3532">
        <ele>6.1</ele>
        <time>2019-03-17T12:58:51Z</time>
      </trkpt>
      <trkpt lat="43.71948" lon="7.35317">
        <ele>5</ele>
        <time>2019-03-17T12:58:55Z</time>
      </trkpt>
      <trkpt lat="43.71947" lon="7.35313">
        <ele>4.8</ele>
        <time>2019-03-17T12:58:59Z</time>
      </trkpt>
      <trkpt lat="43.71946" lon="7.35311">
        <ele>5.7</ele>
        <time>2019-03-17T12:59:01Z</time>
      </trkpt>
      <trkpt lat="43.71946" lon="7.3531">
        <ele>5.7</ele>
        <time>2019-03-17T12:59:03Z</time>
      </trkpt>
      <trkpt lat="43.71947" lon="7.3531">
        <ele>5.7</ele>
        <time>2019-03-17T12:59:06Z</time>
      </trkpt>
      <trkpt lat="43.71945" lon="7.35304">
        <ele>6.5</ele>
        <time>2019-03-17T12:59:22Z</time>
      </trkpt>
      <trkpt lat="43.71935" lon="7.3529">
        <ele>7.1</ele>
        <time>2019-03-17T12:59:38Z</time>
      </trkpt>
      <trkpt lat="43.71931" lon="7.35287">
        <ele>6.5</ele>
        <time>2019-03-17T12:59:43Z</time>
      </trkpt>
      <trkpt lat="43.71927" lon="7.35283">
        <ele>6.2</ele>
        <time>2019-03-17T12:59:48Z</time>
      </trkpt>
      <trkpt lat="43.71925" lon="7.3528">
        <ele>5.4</ele>
        <time>2019-03-17T12:59:52Z</time>
      </trkpt>
      <trkpt lat="43.71912" lon="7.35262">
        <ele>1.5</ele>
        <time>2019-03-17T13:00:21Z</time>
      </trkpt>
      <trkpt lat="43.71911" lon="7.35259">
        <ele>2.4</ele>
        <time>2019-03-17T13:00:23Z</time>
      </trkpt>
      <trkpt lat="43.71904" lon="7.35248">
        <ele>3.1</ele>
        <time>2019-03-17T13:00:36Z</time>
      </trkpt>
      <trkpt lat="43.71903" lon="7.35245">
        <ele>3.8</ele>
        <time>2019-03-17T13:00:39Z</time>
      </trkpt>
      <trkpt lat="43.71901" lon="7.35239">
        <ele>4.4</ele>
        <time>2019-03-17T13:00:45Z</time>
      </trkpt>
      <trkpt lat="43.71891" lon="7.35217">
        <ele>3.5</ele>
        <time>2019-03-17T13:01:07Z</time>
      </trkpt>
      <trkpt lat="43.7189" lon="7.35216">
        <ele>3.8</ele>
        <time>2019-03-17T13:01:08Z</time>
      </trkpt>
      <trkpt lat="43.71883" lon="7.35205">
        <ele>2.1</ele>
        <time>2019-03-17T13:01:21Z</time>
      </trkpt>
      <trkpt lat="43.71874" lon="7.35189">
        <ele>5.8</ele>
        <time>2019-03-17T13:01:38Z</time>
      </trkpt>
      <trkpt lat="43.71871" lon="7.35184">
        <ele>6.7</ele>
        <time>2019-03-17T13:01:43Z</time>
      </trkpt>
      <trkpt lat="43.7187" lon="7.35182">
        <ele>8.3</ele>
        <time>2019-03-17T13:01:45Z</time>
      </trkpt>
      <trkpt lat="43.71857" lon="7.35166">
        <ele>6.6</ele>
        <time>2019-03-17T13:02:04Z</time>
      </trkpt>
      <trkpt lat="43.71846" lon="7.35151">
        <ele>10.9</ele>
        <time>2019-03-17T13:02:22Z</time>
      </trkpt>
      <trkpt lat="43.71844" lon="7.35147">
        <ele>11.2</ele>
        <time>2019-03-17T13:02:26Z</time>
      </trkpt>
      <trkpt lat="43.71844" lon="7.35145">
        <ele>11.2</ele>
        <time>2019-03-17T13:02:29Z</time>
      </trkpt>
      <trkpt lat="43.71832" lon="7.35126">
        <ele>14</ele>
        <time>2019-03-17T13:02:58Z</time>
      </trkpt>
      <trkpt lat="43.71817" lon="7.35112">
        <ele>14</ele>
        <time>2019-03-17T13:03:20Z</time>
      </trkpt>
      <trkpt lat="43.71809" lon="7.35112">
        <ele>12.2</ele>
        <time>2019-03-17T13:03:29Z</time>
      </trkpt>
      <trkpt lat="43.71803" lon="7.35111">
        <ele>9.8</ele>
        <time>2019-03-17T13:03:34Z</time>
      </trkpt>
      <trkpt lat="43.71797" lon="7.35107">
        <ele>9.6</ele>
        <time>2019-03-17T13:03:40Z</time>
      </trkpt>
      <trkpt lat="43.71793" lon="7.35103">
        <ele>11</ele>
        <time>2019-03-17T13:03:45Z</time>
      </trkpt>
      <trkpt lat="43.71791" lon="7.35099">
        <ele>12.2</ele>
        <time>2019-03-17T13:03:49Z</time>
      </trkpt>
      <trkpt lat="43.7179" lon="7.35097">
        <ele>14.2</ele>
        <time>2019-03-17T13:03:51Z</time>
      </trkpt>
      <trkpt lat="43.71784" lon="7.35092">
        <ele>13</ele>
        <time>2019-03-17T13:03:58Z</time>
      </trkpt>
      <trkpt lat="43.71767" lon="7.35082">
        <ele>8.5</ele>
        <time>2019-03-17T13:04:16Z</time>
      </trkpt>
      <trkpt lat="43.71749" lon="7.35075">
        <ele>13.4</ele>
        <time>2019-03-17T13:04:33Z</time>
      </trkpt>
      <trkpt lat="43.71731" lon="7.35069">
        <ele>16.3</ele>
        <time>2019-03-17T13:04:50Z</time>
      </trkpt>
      <trkpt lat="43.71716" lon="7.35065">
        <ele>19</ele>
        <time>2019-03-17T13:05:06Z</time>
      </trkpt>
      <trkpt lat="43.71714" lon="7.35066">
        <ele>19.2</ele>
        <time>2019-03-17T13:05:09Z</time>
      </trkpt>
      <trkpt lat="43.71711" lon="7.35068">
        <ele>17.1</ele>
        <time>2019-03-17T13:05:12Z</time>
      </trkpt>
      <trkpt lat="43.71707" lon="7.3507">
        <ele>17.3</ele>
        <time>2019-03-17T13:05:15Z</time>
      </trkpt>
      <trkpt lat="43.7169" lon="7.3506">
        <ele>21.4</ele>
        <time>2019-03-17T13:05:30Z</time>
      </trkpt>
      <trkpt lat="43.71679" lon="7.35059">
        <ele>23.7</ele>
        <time>2019-03-17T13:05:42Z</time>
      </trkpt>
      <trkpt lat="43.71661" lon="7.35064">
        <ele>24.6</ele>
        <time>2019-03-17T13:05:58Z</time>
      </trkpt>
      <trkpt lat="43.71646" lon="7.35081">
        <ele>20.3</ele>
        <time>2019-03-17T13:06:13Z</time>
      </trkpt>
      <trkpt lat="43.71632" lon="7.35098">
        <ele>14.8</ele>
        <time>2019-03-17T13:06:27Z</time>
      </trkpt>
      <trkpt lat="43.71629" lon="7.351">
        <ele>14.3</ele>
        <time>2019-03-17T13:06:33Z</time>
      </trkpt>
      <trkpt lat="43.7163" lon="7.35097">
        <ele>13.9</ele>
        <time>2019-03-17T13:06:35Z</time>
      </trkpt>
      <trkpt lat="43.71642" lon="7.35078">
        <ele>19.1</ele>
        <time>2019-03-17T13:06:50Z</time>
      </trkpt>
      <trkpt lat="43.71656" lon="7.35061">
        <ele>23.3</ele>
        <time>2019-03-17T13:07:06Z</time>
      </trkpt>
      <trkpt lat="43.7167" lon="7.35056">
        <ele>24.2</ele>
        <time>2019-03-17T13:07:17Z</time>
      </trkpt>
      <trkpt lat="43.71686" lon="7.35059">
        <ele>22.9</ele>
        <time>2019-03-17T13:07:28Z</time>
      </trkpt>
      <trkpt lat="43.71693" lon="7.3505">
        <ele>21.2</ele>
        <time>2019-03-17T13:08:19Z</time>
      </trkpt>
      <trkpt lat="43.71696" lon="7.35049">
        <ele>21</ele>
        <time>2019-03-17T13:09:06Z</time>
      </trkpt>
      <trkpt lat="43.71688" lon="7.35047">
        <ele>23.4</ele>
        <time>2019-03-17T13:09:12Z</time>
      </trkpt>
      <trkpt lat="43.71673" lon="7.35038">
        <ele>26.2</ele>
        <time>2019-03-17T13:09:29Z</time>
      </trkpt>
      <trkpt lat="43.71676" lon="7.35014">
        <ele>31.8</ele>
        <time>2019-03-17T13:09:45Z</time>
      </trkpt>
      <trkpt lat="43.71682" lon="7.35009">
        <ele>32.5</ele>
        <time>2019-03-17T13:10:00Z</time>
      </trkpt>
      <trkpt lat="43.7168" lon="7.35011">
        <ele>32.1</ele>
        <time>2019-03-17T13:10:02Z</time>
      </trkpt>
      <trkpt lat="43.71677" lon="7.35012">
        <ele>31.7</ele>
        <time>2019-03-17T13:10:04Z</time>
      </trkpt>
      <trkpt lat="43.71673" lon="7.35014">
        <ele>31.1</ele>
        <time>2019-03-17T13:10:08Z</time>
      </trkpt>
      <trkpt lat="43.71669" lon="7.35015">
        <ele>30.7</ele>
        <time>2019-03-17T13:10:10Z</time>
      </trkpt>
      <trkpt lat="43.71667" lon="7.35016">
        <ele>30.5</ele>
        <time>2019-03-17T13:10:12Z</time>
      </trkpt>
      <trkpt lat="43.71662" lon="7.35021">
        <ele>29.7</ele>
        <time>2019-03-17T13:10:19Z</time>
      </trkpt>
      <trkpt lat="43.71658" lon="7.35027">
        <ele>29</ele>
        <time>2019-03-17T13:10:24Z</time>
      </trkpt>
      <trkpt lat="43.71657" lon="7.35031">
        <ele>28.7</ele>
        <time>2019-03-17T13:10:27Z</time>
      </trkpt>
      <trkpt lat="43.71658" lon="7.35032">
        <ele>28.4</ele>
        <time>2019-03-17T13:10:29Z</time>
      </trkpt>
      <trkpt lat="43.71661" lon="7.35045">
        <ele>27.2</ele>
        <time>2019-03-17T13:10:43Z</time>
      </trkpt>
      <trkpt lat="43.7166" lon="7.35047">
        <ele>27.1</ele>
        <time>2019-03-17T13:10:45Z</time>
      </trkpt>
      <trkpt lat="43.71659" lon="7.35048">
        <ele>26.9</ele>
        <time>2019-03-17T13:10:47Z</time>
      </trkpt>
      <trkpt lat="43.71657" lon="7.35049">
        <ele>26.8</ele>
        <time>2019-03-17T13:10:49Z</time>
      </trkpt>
      <trkpt lat="43.71656" lon="7.35051">
        <ele>26.6</ele>
        <time>2019-03-17T13:10:51Z</time>
      </trkpt>
      <trkpt lat="43.71654" lon="7.35053">
        <ele>26.4</ele>
        <time>2019-03-17T13:10:54Z</time>
      </trkpt>
      <trkpt lat="43.71651" lon="7.35052">
        <ele>26.1</ele>
        <time>2019-03-17T13:11:02Z</time>
      </trkpt>
      <trkpt lat="43.71645" lon="7.35053">
        <ele>25.4</ele>
        <time>2019-03-17T13:11:32Z</time>
      </trkpt>
      <trkpt lat="43.71644" lon="7.35054">
        <ele>25.3</ele>
        <time>2019-03-17T13:11:34Z</time>
      </trkpt>
      <trkpt lat="43.71642" lon="7.35057">
        <ele>24.9</ele>
        <time>2019-03-17T13:11:38Z</time>
      </trkpt>
      <trkpt lat="43.71631" lon="7.35077">
        <ele>22.7</ele>
        <time>2019-03-17T13:11:49Z</time>
      </trkpt>
      <trkpt lat="43.7162" lon="7.35097">
        <ele>20.1</ele>
        <time>2019-03-17T13:12:02Z</time>
      </trkpt>
      <trkpt lat="43.71601" lon="7.35107">
        <ele>17</ele>
        <time>2019-03-17T13:12:14Z</time>
      </trkpt>
      <trkpt lat="43.71582" lon="7.35113">
        <ele>13.1</ele>
        <time>2019-03-17T13:12:31Z</time>
      </trkpt>
      <trkpt lat="43.71576" lon="7.35105">
        <ele>13.4</ele>
        <time>2019-03-17T13:12:53Z</time>
      </trkpt>
      <trkpt lat="43.71566" lon="7.35105">
        <ele>13.9</ele>
        <time>2019-03-17T13:13:04Z</time>
      </trkpt>
      <trkpt lat="43.71548" lon="7.35096">
        <ele>14.5</ele>
        <time>2019-03-17T13:13:21Z</time>
      </trkpt>
      <trkpt lat="43.71541" lon="7.35086">
        <ele>14.9</ele>
        <time>2019-03-17T13:13:32Z</time>
      </trkpt>
      <trkpt lat="43.71541" lon="7.35085">
        <ele>15</ele>
        <time>2019-03-17T13:13:44Z</time>
      </trkpt>
      <trkpt lat="43.71442" lon="7.34815">
        <ele>46.7</ele>
        <time>2019-03-17T13:18:19Z</time>
      </trkpt>
      <trkpt lat="43.71444" lon="7.3479">
        <ele>56.2</ele>
        <time>2019-03-17T13:18:38Z</time>
      </trkpt>
      <trkpt lat="43.71439" lon="7.34764">
        <ele>64.8</ele>
        <time>2019-03-17T13:18:54Z</time>
      </trkpt>
      <trkpt lat="43.71437" lon="7.34739">
        <ele>72.8</ele>
        <time>2019-03-17T13:19:10Z</time>
      </trkpt>
      <trkpt lat="43.71435" lon="7.34714">
        <ele>80.4</ele>
        <time>2019-03-17T13:19:27Z</time>
      </trkpt>
      <trkpt lat="43.71434" lon="7.34689">
        <ele>87.8</ele>
        <time>2019-03-17T13:19:43Z</time>
      </trkpt>
      <trkpt lat="43.7143" lon="7.34663">
        <ele>95.4</ele>
        <time>2019-03-17T13:19:59Z</time>
      </trkpt>
      <trkpt lat="43.71429" lon="7.34638">
        <ele>102.8</ele>
        <time>2019-03-17T13:20:14Z</time>
      </trkpt>
      <trkpt lat="43.71427" lon="7.34612">
        <ele>110.9</ele>
        <time>2019-03-17T13:20:30Z</time>
      </trkpt>
      <trkpt lat="43.71428" lon="7.34586">
        <ele>119.2</ele>
        <time>2019-03-17T13:20:46Z</time>
      </trkpt>
      <trkpt lat="43.71423" lon="7.34562">
        <ele>127.2</ele>
        <time>2019-03-17T13:21:00Z</time>
      </trkpt>
      <trkpt lat="43.71422" lon="7.34536">
        <ele>135.3</ele>
        <time>2019-03-17T13:21:17Z</time>
      </trkpt>
      <trkpt lat="43.71418" lon="7.34511">
        <ele>143.2</ele>
        <time>2019-03-17T13:21:32Z</time>
      </trkpt>
      <trkpt lat="43.71412" lon="7.34492">
        <ele>144.8</ele>
        <time>2019-03-17T13:21:46Z</time>
      </trkpt>
      <trkpt lat="43.71405" lon="7.34484">
        <ele>142.5</ele>
        <time>2019-03-17T13:21:54Z</time>
      </trkpt>
      <trkpt lat="43.71397" lon="7.34465">
        <ele>137.8</ele>
        <time>2019-03-17T13:22:10Z</time>
      </trkpt>
      <trkpt lat="43.71399" lon="7.34442">
        <ele>132.6</ele>
        <time>2019-03-17T13:22:26Z</time>
      </trkpt>
      <trkpt lat="43.71401" lon="7.34435">
        <ele>130.8</ele>
        <time>2019-03-17T13:22:33Z</time>
      </trkpt>
      <trkpt lat="43.714" lon="7.34432">
        <ele>130.1</ele>
        <time>2019-03-17T13:22:35Z</time>
      </trkpt>
      <trkpt lat="43.71399" lon="7.34427">
        <ele>128.7</ele>
        <time>2019-03-17T13:22:39Z</time>
      </trkpt>
      <trkpt lat="43.71397" lon="7.34401">
        <ele>122.9</ele>
        <time>2019-03-17T13:22:54Z</time>
      </trkpt>
      <trkpt lat="43.71402" lon="7.34389">
        <ele>117.7</ele>
        <time>2019-03-17T13:23:03Z</time>
      </trkpt>
      <trkpt lat="43.71402" lon="7.34366">
        <ele>109.2</ele>
        <time>2019-03-17T13:23:16Z</time>
      </trkpt>
      <trkpt lat="43.71403" lon="7.34363">
        <ele>108</ele>
        <time>2019-03-17T13:23:18Z</time>
      </trkpt>
      <trkpt lat="43.71399" lon="7.34351">
        <ele>103.3</ele>
        <time>2019-03-17T13:23:27Z</time>
      </trkpt>
      <trkpt lat="43.71397" lon="7.34327">
        <ele>95</ele>
        <time>2019-03-17T13:23:58Z</time>
      </trkpt>
      <trkpt lat="43.71393" lon="7.34318">
        <ele>91.4</ele>
        <time>2019-03-17T13:24:13Z</time>
      </trkpt>
      <trkpt lat="43.71393" lon="7.34293">
        <ele>82.5</ele>
        <time>2019-03-17T13:24:30Z</time>
      </trkpt>
      <trkpt lat="43.71392" lon="7.34268">
        <ele>74.8</ele>
        <time>2019-03-17T13:24:48Z</time>
      </trkpt>
      <trkpt lat="43.71387" lon="7.34244">
        <ele>72.1</ele>
        <time>2019-03-17T13:25:06Z</time>
      </trkpt>
      <trkpt lat="43.71386" lon="7.34221">
        <ele>69.4</ele>
        <time>2019-03-17T13:25:24Z</time>
      </trkpt>
      <trkpt lat="43.71375" lon="7.342">
        <ele>66.8</ele>
        <time>2019-03-17T13:25:40Z</time>
      </trkpt>
      <trkpt lat="43.71363" lon="7.34184">
        <ele>64.4</ele>
        <time>2019-03-17T13:25:58Z</time>
      </trkpt>
      <trkpt lat="43.71357" lon="7.3416">
        <ele>61.9</ele>
        <time>2019-03-17T13:26:16Z</time>
      </trkpt>
      <trkpt lat="43.71343" lon="7.34142">
        <ele>61.9</ele>
        <time>2019-03-17T13:26:35Z</time>
      </trkpt>
      <trkpt lat="43.71328" lon="7.34126">
        <ele>57.3</ele>
        <time>2019-03-17T13:26:54Z</time>
      </trkpt>
      <trkpt lat="43.71314" lon="7.34109">
        <ele>49.6</ele>
        <time>2019-03-17T13:27:15Z</time>
      </trkpt>
      <trkpt lat="43.71304" lon="7.34097">
        <ele>38.9</ele>
        <time>2019-03-17T13:27:31Z</time>
      </trkpt>
      <trkpt lat="43.71298" lon="7.34073">
        <ele>45.7</ele>
        <time>2019-03-17T13:27:51Z</time>
      </trkpt>
      <trkpt lat="43.71294" lon="7.34048">
        <ele>48</ele>
        <time>2019-03-17T13:28:09Z</time>
      </trkpt>
      <trkpt lat="43.71288" lon="7.34025">
        <ele>44</ele>
        <time>2019-03-17T13:28:26Z</time>
      </trkpt>
      <trkpt lat="43.71288" lon="7.34025">
        <ele>43.2</ele>
        <time>2019-03-17T13:28:27Z</time>
      </trkpt>
      <trkpt lat="43.71287" lon="7.3402">
        <ele>43</ele>
        <time>2019-03-17T13:28:30Z</time>
      </trkpt>
      <trkpt lat="43.71284" lon="7.34017">
        <ele>42.3</ele>
        <time>2019-03-17T13:28:33Z</time>
      </trkpt>
      <trkpt lat="43.71275" lon="7.33996">
        <ele>41.2</ele>
        <time>2019-03-17T13:28:50Z</time>
      </trkpt>
      <trkpt lat="43.71267" lon="7.33973">
        <ele>37.3</ele>
        <time>2019-03-17T13:29:06Z</time>
      </trkpt>
      <trkpt lat="43.71258" lon="7.33949">
        <ele>36.4</ele>
        <time>2019-03-17T13:29:22Z</time>
      </trkpt>
      <trkpt lat="43.71256" lon="7.33945">
        <ele>35.7</ele>
        <time>2019-03-17T13:29:25Z</time>
      </trkpt>
      <trkpt lat="43.71255" lon="7.3392">
        <ele>35.2</ele>
        <time>2019-03-17T13:29:42Z</time>
      </trkpt>
      <trkpt lat="43.71251" lon="7.33896">
        <ele>34.3</ele>
        <time>2019-03-17T13:29:58Z</time>
      </trkpt>
      <trkpt lat="43.71249" lon="7.33888">
        <ele>33</ele>
        <time>2019-03-17T13:30:05Z</time>
      </trkpt>
      <trkpt lat="43.71249" lon="7.33884">
        <ele>32.2</ele>
        <time>2019-03-17T13:30:08Z</time>
      </trkpt>
      <trkpt lat="43.71243" lon="7.3386">
        <ele>30.8</ele>
        <time>2019-03-17T13:30:25Z</time>
      </trkpt>
      <trkpt lat="43.71241" lon="7.33853">
        <ele>30.2</ele>
        <time>2019-03-17T13:30:30Z</time>
      </trkpt>
      <trkpt lat="43.71235" lon="7.33837">
        <ele>28.3</ele>
        <time>2019-03-17T13:30:42Z</time>
      </trkpt>
      <trkpt lat="43.71229" lon="7.33813">
        <ele>26.9</ele>
        <time>2019-03-17T13:31:00Z</time>
      </trkpt>
      <trkpt lat="43.71226" lon="7.33802">
        <ele>27</ele>
        <time>2019-03-17T13:31:09Z</time>
      </trkpt>
      <trkpt lat="43.71225" lon="7.33798">
        <ele>27.3</ele>
        <time>2019-03-17T13:31:11Z</time>
      </trkpt>
      <trkpt lat="43.71224" lon="7.33794">
        <ele>26.9</ele>
        <time>2019-03-17T13:31:15Z</time>
      </trkpt>
      <trkpt lat="43.71223" lon="7.33791">
        <ele>26.9</ele>
        <time>2019-03-17T13:31:17Z</time>
      </trkpt>
      <trkpt lat="43.71221" lon="7.33781">
        <ele>26.3</ele>
        <time>2019-03-17T13:31:26Z</time>
      </trkpt>
      <trkpt lat="43.7122" lon="7.33779">
        <ele>25.5</ele>
        <time>2019-03-17T13:31:29Z</time>
      </trkpt>
      <trkpt lat="43.7122" lon="7.33779">
        <ele>24.7</ele>
        <time>2019-03-17T13:31:31Z</time>
      </trkpt>
      <trkpt lat="43.71206" lon="7.33763">
        <ele>21.4</ele>
        <time>2019-03-17T13:31:50Z</time>
      </trkpt>
      <trkpt lat="43.712" lon="7.3376">
        <ele>20.5</ele>
        <time>2019-03-17T13:31:56Z</time>
      </trkpt>
      <trkpt lat="43.71184" lon="7.3375">
        <ele>18.4</ele>
        <time>2019-03-17T13:32:14Z</time>
      </trkpt>
      <trkpt lat="43.71167" lon="7.33743">
        <ele>14.9</ele>
        <time>2019-03-17T13:32:31Z</time>
      </trkpt>
      <trkpt lat="43.71151" lon="7.33746">
        <ele>9.9</ele>
        <time>2019-03-17T13:32:45Z</time>
      </trkpt>
      <trkpt lat="43.71133" lon="7.33747">
        <ele>7.1</ele>
        <time>2019-03-17T13:33:01Z</time>
      </trkpt>
      <trkpt lat="43.71129" lon="7.33747">
        <ele>6.2</ele>
        <time>2019-03-17T13:33:04Z</time>
      </trkpt>
      <trkpt lat="43.71123" lon="7.33751">
        <ele>4.2</ele>
        <time>2019-03-17T13:33:11Z</time>
      </trkpt>
      <trkpt lat="43.7112" lon="7.33753">
        <ele>3.4</ele>
        <time>2019-03-17T13:33:14Z</time>
      </trkpt>
      <trkpt lat="43.71117" lon="7.33749">
        <ele>2.5</ele>
        <time>2019-03-17T13:33:18Z</time>
      </trkpt>
      <trkpt lat="43.71113" lon="7.33736">
        <ele>3.2</ele>
        <time>2019-03-17T13:33:28Z</time>
      </trkpt>
      <trkpt lat="43.71111" lon="7.33711">
        <ele>5.2</ele>
        <time>2019-03-17T13:33:44Z</time>
      </trkpt>
      <trkpt lat="43.71115" lon="7.33686">
        <ele>7.3</ele>
        <time>2019-03-17T13:33:59Z</time>
      </trkpt>
      <trkpt lat="43.71116" lon="7.33677">
        <ele>7.4</ele>
        <time>2019-03-17T13:34:07Z</time>
      </trkpt>
      <trkpt lat="43.71115" lon="7.33676">
        <ele>7.3</ele>
        <time>2019-03-17T13:34:09Z</time>
      </trkpt>
      <trkpt lat="43.71113" lon="7.33674">
        <ele>7.2</ele>
        <time>2019-03-17T13:34:11Z</time>
      </trkpt>
      <trkpt lat="43.71095" lon="7.33666">
        <ele>5.7</ele>
        <time>2019-03-17T13:34:29Z</time>
      </trkpt>
      <trkpt lat="43.71087" lon="7.33659">
        <ele>5.9</ele>
        <time>2019-03-17T13:34:38Z</time>
      </trkpt>
      <trkpt lat="43.71085" lon="7.33655">
        <ele>6.3</ele>
        <time>2019-03-17T13:34:41Z</time>
      </trkpt>
      <trkpt lat="43.71082" lon="7.33646">
        <ele>6.9</ele>
        <time>2019-03-17T13:34:48Z</time>
      </trkpt>
      <trkpt lat="43.71083" lon="7.33639">
        <ele>7.4</ele>
        <time>2019-03-17T13:34:52Z</time>
      </trkpt>
      <trkpt lat="43.7108" lon="7.33626">
        <ele>8.9</ele>
        <time>2019-03-17T13:35:01Z</time>
      </trkpt>
      <trkpt lat="43.71079" lon="7.33624">
        <ele>8.9</ele>
        <time>2019-03-17T13:35:03Z</time>
      </trkpt>
      <trkpt lat="43.71061" lon="7.33616">
        <ele>8.9</ele>
        <time>2019-03-17T13:35:22Z</time>
      </trkpt>
      <trkpt lat="43.71045" lon="7.33606">
        <ele>9.1</ele>
        <time>2019-03-17T13:35:40Z</time>
      </trkpt>
      <trkpt lat="43.71026" lon="7.336">
        <ele>9.1</ele>
        <time>2019-03-17T13:35:56Z</time>
      </trkpt>
      <trkpt lat="43.71009" lon="7.33591">
        <ele>9.2</ele>
        <time>2019-03-17T13:36:11Z</time>
      </trkpt>
      <trkpt lat="43.70991" lon="7.33585">
        <ele>9.2</ele>
        <time>2019-03-17T13:36:29Z</time>
      </trkpt>
      <trkpt lat="43.70973" lon="7.33576">
        <ele>9.3</ele>
        <time>2019-03-17T13:36:46Z</time>
      </trkpt>
      <trkpt lat="43.70956" lon="7.33569">
        <ele>9.2</ele>
        <time>2019-03-17T13:37:03Z</time>
      </trkpt>
      <trkpt lat="43.70939" lon="7.33559">
        <ele>9</ele>
        <time>2019-03-17T13:37:19Z</time>
      </trkpt>
      <trkpt lat="43.70922" lon="7.3355">
        <ele>8.9</ele>
        <time>2019-03-17T13:37:34Z</time>
      </trkpt>
      <trkpt lat="43.70905" lon="7.33544">
        <ele>9</ele>
        <time>2019-03-17T13:37:50Z</time>
      </trkpt>
      <trkpt lat="43.70895" lon="7.3354">
        <ele>8.9</ele>
        <time>2019-03-17T13:38:01Z</time>
      </trkpt>
      <trkpt lat="43.70896" lon="7.33541">
        <ele>8.9</ele>
        <time>2019-03-17T13:38:04Z</time>
      </trkpt>
      <trkpt lat="43.70879" lon="7.33533">
        <ele>8.8</ele>
        <time>2019-03-17T13:38:25Z</time>
      </trkpt>
      <trkpt lat="43.7086" lon="7.33526">
        <ele>8.8</ele>
        <time>2019-03-17T13:38:41Z</time>
      </trkpt>
      <trkpt lat="43.70842" lon="7.33519">
        <ele>8.7</ele>
        <time>2019-03-17T13:38:58Z</time>
      </trkpt>
      <trkpt lat="43.70825" lon="7.33511">
        <ele>8.6</ele>
        <time>2019-03-17T13:39:14Z</time>
      </trkpt>
      <trkpt lat="43.70811" lon="7.33504">
        <ele>8.7</ele>
        <time>2019-03-17T13:39:27Z</time>
      </trkpt>
      <trkpt lat="43.70794" lon="7.33495">
        <ele>8.9</ele>
        <time>2019-03-17T13:39:44Z</time>
      </trkpt>
      <trkpt lat="43.70777" lon="7.33486">
        <ele>8.9</ele>
        <time>2019-03-17T13:40:02Z</time>
      </trkpt>
      <trkpt lat="43.70759" lon="7.3348">
        <ele>8.9</ele>
        <time>2019-03-17T13:40:19Z</time>
      </trkpt>
      <trkpt lat="43.70741" lon="7.33482">
        <ele>8.3</ele>
        <time>2019-03-17T13:40:36Z</time>
      </trkpt>
      <trkpt lat="43.70724" lon="7.33492">
        <ele>7.6</ele>
        <time>2019-03-17T13:40:53Z</time>
      </trkpt>
      <trkpt lat="43.70709" lon="7.33505">
        <ele>7.1</ele>
        <time>2019-03-17T13:41:07Z</time>
      </trkpt>
      <trkpt lat="43.70708" lon="7.33506">
        <ele>7.1</ele>
        <time>2019-03-17T13:41:08Z</time>
      </trkpt>
      <trkpt lat="43.70706" lon="7.3351">
        <ele>7</ele>
        <time>2019-03-17T13:41:12Z</time>
      </trkpt>
      <trkpt lat="43.70697" lon="7.33532">
        <ele>6.3</ele>
        <time>2019-03-17T13:41:43Z</time>
      </trkpt>
      <trkpt lat="43.70695" lon="7.33557">
        <ele>5.5</ele>
        <time>2019-03-17T13:41:59Z</time>
      </trkpt>
      <trkpt lat="43.70695" lon="7.33583">
        <ele>5.1</ele>
        <time>2019-03-17T13:42:14Z</time>
      </trkpt>
      <trkpt lat="43.70695" lon="7.33597">
        <ele>4.8</ele>
        <time>2019-03-17T13:42:22Z</time>
      </trkpt>
      <trkpt lat="43.7069" lon="7.33614">
        <ele>4.3</ele>
        <time>2019-03-17T13:42:38Z</time>
      </trkpt>
      <trkpt lat="43.7069" lon="7.33614">
        <ele>4.3</ele>
        <time>2019-03-17T13:42:40Z</time>
      </trkpt>
      <trkpt lat="43.70692" lon="7.3362">
        <ele>4.2</ele>
        <time>2019-03-17T13:42:44Z</time>
      </trkpt>
      <trkpt lat="43.70691" lon="7.33622">
        <ele>4.1</ele>
        <time>2019-03-17T13:42:46Z</time>
      </trkpt>
      <trkpt lat="43.7068" lon="7.3364">
        <ele>4.1</ele>
        <time>2019-03-17T13:43:06Z</time>
      </trkpt>
      <trkpt lat="43.70677" lon="7.33642">
        <ele>4.1</ele>
        <time>2019-03-17T13:43:10Z</time>
      </trkpt>
      <trkpt lat="43.70676" lon="7.33643">
        <ele>4</ele>
        <time>2019-03-17T13:43:12Z</time>
      </trkpt>
      <trkpt lat="43.70675" lon="7.33645">
        <ele>4.1</ele>
        <time>2019-03-17T13:43:14Z</time>
      </trkpt>
      <trkpt lat="43.70673" lon="7.33647">
        <ele>4</ele>
        <time>2019-03-17T13:43:17Z</time>
      </trkpt>
      <trkpt lat="43.70671" lon="7.33649">
        <ele>4.1</ele>
        <time>2019-03-17T13:43:19Z</time>
      </trkpt>
      <trkpt lat="43.70656" lon="7.33655">
        <ele>4.5</ele>
        <time>2019-03-17T13:43:33Z</time>
      </trkpt>
      <trkpt lat="43.70661" lon="7.3364">
        <ele>4.6</ele>
        <time>2019-03-17T13:43:51Z</time>
      </trkpt>
      <trkpt lat="43.70659" lon="7.3362">
        <ele>5.5</ele>
        <time>2019-03-17T13:44:08Z</time>
      </trkpt>
      <trkpt lat="43.70657" lon="7.33624">
        <ele>5.4</ele>
        <time>2019-03-17T13:44:12Z</time>
      </trkpt>
      <trkpt lat="43.70655" lon="7.33628">
        <ele>5.3</ele>
        <time>2019-03-17T13:44:15Z</time>
      </trkpt>
      <trkpt lat="43.70641" lon="7.33637">
        <ele>5.7</ele>
        <time>2019-03-17T13:44:30Z</time>
      </trkpt>
      <trkpt lat="43.70637" lon="7.33638">
        <ele>5.8</ele>
        <time>2019-03-17T13:44:34Z</time>
      </trkpt>
      <trkpt lat="43.70635" lon="7.33638">
        <ele>5.9</ele>
        <time>2019-03-17T13:44:37Z</time>
      </trkpt>
      <trkpt lat="43.70634" lon="7.33638">
        <ele>6</ele>
        <time>2019-03-17T13:44:39Z</time>
      </trkpt>
      <trkpt lat="43.70619" lon="7.33623">
        <ele>6.6</ele>
        <time>2019-03-17T13:45:06Z</time>
      </trkpt>
      <trkpt lat="43.70605" lon="7.33606">
        <ele>7.3</ele>
        <time>2019-03-17T13:45:25Z</time>
      </trkpt>
      <trkpt lat="43.70589" lon="7.33593">
        <ele>7.9</ele>
        <time>2019-03-17T13:45:41Z</time>
      </trkpt>
      <trkpt lat="43.70585" lon="7.33575">
        <ele>8.5</ele>
        <time>2019-03-17T13:46:07Z</time>
      </trkpt>
      <trkpt lat="43.70588" lon="7.33574">
        <ele>8.6</ele>
        <time>2019-03-17T13:46:10Z</time>
      </trkpt>
      <trkpt lat="43.70597" lon="7.33572">
        <ele>8.8</ele>
        <time>2019-03-17T13:46:17Z</time>
      </trkpt>
      <trkpt lat="43.70607" lon="7.3357">
        <ele>8.8</ele>
        <time>2019-03-17T13:46:28Z</time>
      </trkpt>
      <trkpt lat="43.70607" lon="7.3357">
        <ele>8.8</ele>
        <time>2019-03-17T13:46:30Z</time>
      </trkpt>
    </trkseg>
  </trk>
</gpx>